N65497 / N65497 7700 Squawk Report (20th of June, 2018)

Time Lat Lon Altitude Heading Speed Vertical Rate
2018-06-21 00:41:09 GMT 33.250717 -117.093384 1,350 10 66 -1024
2018-06-21 00:41:01 GMT 33.248074 -117.093964 1,475 8 68 -896
2018-06-21 00:40:50 GMT 33.244446 -117.094315 1,575 351 75 -448
2018-06-21 00:40:39 GMT 33.241196 -117.092117 1,700 315 78 -384
2018-06-21 00:40:28 GMT 33.238861 -117.087944 1,800 286 87 320
2018-06-21 00:40:16 GMT 33.236938 -117.083000 1,775 295 88 384
2018-06-21 00:40:06 GMT 33.236710 -117.078384 1,725 240 79 384
2018-06-21 00:39:55 GMT 33.240162 -117.075859 1,650 181 81 512
2018-06-21 00:39:51 GMT 33.242023 -117.076591 1,625 154 82 576
2018-06-21 00:39:43 GMT 33.243557 -117.079109 1,575 114 83 512
2018-06-21 00:39:33 GMT 33.243164 -117.083115 1,500 64 76 320
2018-06-21 00:39:23 GMT 33.242256 -117.087128 1,425 111 75 768
2018-06-21 00:38:18 GMT 33.262390 -117.092285 1,325 187 71 -1344
2018-06-21 00:38:07 GMT 33.265411 -117.090088 1,475 248 68 -384
2018-06-21 00:37:56 GMT 33.264862 -117.086296 1,550 299 64 -448
2018-06-21 00:37:46 GMT 33.262085 -117.084999 1,575 0 71 64
2018-06-21 00:37:35 GMT 33.258221 -117.084885 1,550 357 75 128
2018-06-21 00:37:25 GMT 33.254929 -117.085037 1,550 15 71 256
2018-06-21 00:37:13 GMT 33.252686 -117.088608 1,500 89 80 -128
2018-06-21 00:37:02 GMT 33.254471 -117.092285 1,550 146 67 192
2018-06-21 00:36:49 GMT 33.258640 -117.092957 1,550 188 76 -320
2018-06-21 00:36:37 GMT 33.263214 -117.092339 1,600 183 77 -320
2018-06-21 00:36:25 GMT 33.267105 -117.092339 1,700 180 76 -896
2018-06-21 00:36:11 GMT 33.272186 -117.091782 1,975 197 68 -1024
2018-06-21 00:36:01 GMT 33.274475 -117.089981 2,075 237 62 -256
2018-06-21 00:35:49 GMT 33.274513 -117.085724 2,125 308 74 -128
2018-06-21 00:35:39 GMT 33.271454 -117.083275 2,150 345 80 -640
2018-06-21 00:35:27 GMT 33.267471 -117.082451 2,200 355 80 -64
2018-06-21 00:35:17 GMT 33.263111 -117.082306 2,250 3 95 -640
2018-06-21 00:35:07 GMT 33.257523 -117.082588 2,275 3 108 448
2018-06-21 00:35:04 GMT 33.257339 -117.082588 2,275 1 106 320
2018-06-21 00:34:53 GMT 33.251678 -117.083000 2,300 5 109 -832
2018-06-21 00:34:41 GMT 33.246071 -117.085670 2,400 43 99 -256
2018-06-21 00:34:35 GMT 33.244442 -117.088028 2,400 43 99 -256
2018-06-21 00:34:28 GMT 33.243576 -117.091843 2,425 86 98 0
2018-06-21 00:34:22 GMT 33.243851 -117.094864 2,375 107 100 320
2018-06-21 00:34:17 GMT 33.244720 -117.097389 2,375 121 103 -192
2018-06-21 00:34:06 GMT 33.248428 -117.101624 2,450 153 99 -64
2018-06-21 00:33:56 GMT 33.253147 -117.102715 2,450 183 100 -384
2018-06-21 00:33:44 GMT 33.258549 -117.101532 2,500 198 101 -64
2018-06-21 00:33:33 GMT 33.263489 -117.099319 2,550 201 103 -512
2018-06-21 00:33:21 GMT 33.268696 -117.096939 2,625 209 104 -192
2018-06-21 00:33:10 GMT 33.272884 -117.092850 2,675 233 112 -576
2018-06-21 00:32:59 GMT 33.274887 -117.085800 2,750 285 110 512
2018-06-21 00:32:49 GMT 33.273422 -117.080803 2,725 306 117 -256
2018-06-21 00:32:38 GMT 33.268974 -117.076424 2,925 345 103 -704
2018-06-21 00:32:27 GMT 33.264084 -117.075912 2,900 16 93 -320
2018-06-21 00:32:16 GMT 33.260513 -117.078827 2,950 47 82 64
2018-06-21 00:32:05 GMT 33.259186 -117.083878 2,850 103 97 448
2018-06-21 00:32:01 GMT 33.259804 -117.086288 2,850 115 101 64
2018-06-21 00:31:53 GMT 33.261292 -117.090744 2,875 101 105 -256
2018-06-21 00:31:44 GMT 33.261154 -117.095200 2,925 65 107 -384
2018-06-21 00:31:40 GMT 33.260410 -117.097443 2,950 64 108 -320
2018-06-21 00:31:34 GMT 33.258408 -117.100189 3,000 30 111 -448
2018-06-21 00:31:25 GMT 33.254265 -117.101761 3,050 7 113 -640
2018-06-21 00:31:22 GMT 33.252682 -117.101761 3,050 358 112 -448
2018-06-21 00:31:18 GMT 33.249702 -117.101257 3,100 347 112 -448
2018-06-21 00:31:12 GMT 33.247330 -117.100304 3,250 299 108 -704
2018-06-21 00:31:04 GMT 33.243896 -117.097885 3,175 323 114 -704
2018-06-21 00:31:01 GMT 33.242676 -117.096657 3,200 319 112 -576
2018-06-21 00:30:56 GMT 33.240601 -117.094315 3,250 313 110 -384
2018-06-21 00:30:50 GMT 33.238762 -117.091499 3,300 299 108 -704
2018-06-21 00:30:44 GMT 33.237274 -117.087746 3,350 289 105 -704
2018-06-21 00:30:40 GMT 33.236847 -117.086021 3,400 282 102 -704
2018-06-21 00:30:35 GMT 33.236530 -117.083656 3,450 274 103 -384
2018-06-21 00:30:28 GMT 33.236576 -117.079674 3,475 262 107 -640
2018-06-21 00:30:24 GMT 33.237259 -117.076523 3,550 250 107 -576
2018-06-21 00:30:16 GMT 33.239182 -117.072731 3,625 230 108 -832
2018-06-21 00:30:07 GMT 33.242249 -117.069435 3,725 208 109 -512
2018-06-21 00:30:01 GMT 33.245224 -117.067894 3,750 199 109 -448
2018-06-21 00:29:56 GMT 33.247749 -117.067451 3,750 182 113 -128
2018-06-21 00:29:46 GMT 33.253197 -117.068855 3,800 156 119 -192
2018-06-21 00:29:41 GMT 33.255478 -117.070145 3,850 150 120 -192
2018-06-21 00:29:35 GMT 33.258499 -117.072220 3,850 150 120 -128
2018-06-21 00:29:32 GMT 33.260284 -117.073441 3,850 150 121 -448
2018-06-21 00:29:29 GMT 33.261200 -117.074051 3,850 150 122 -384
2018-06-21 00:29:24 GMT 33.264267 -117.076134 3,925 149 119 -512
2018-06-21 00:29:19 GMT 33.266327 -117.077621 3,950 148 118 -448
2018-06-21 00:29:11 GMT 33.269672 -117.080177 4,000 145 117 -448
2018-06-21 00:29:08 GMT 33.271088 -117.081352 4,025 143 116 -384
2018-06-21 00:29:02 GMT 33.273972 -117.084152 4,075 137 116 -320
2018-06-21 00:28:57 GMT 33.275494 -117.086006 4,075 133 116 -64
2018-06-21 00:28:52 GMT 33.277771 -117.089264 4,100 124 119 -320
2018-06-21 00:28:47 GMT 33.279099 -117.091354 4,100 125 119 -384
2018-06-21 00:28:42 GMT 33.280884 -117.094589 4,200 121 117 -512
2018-06-21 00:28:38 GMT 33.281845 -117.096458 4,175 121 117 -512
2018-06-21 00:28:34 GMT 33.283081 -117.099121 4,200 116 114 -640
2018-06-21 00:28:31 GMT 33.283630 -117.100632 4,250 110 110 -704
2018-06-21 00:28:28 GMT 33.284134 -117.102394 4,275 103 107 -448
2018-06-21 00:28:25 GMT 33.284317 -117.103378 4,300 92 104 -256
2018-06-21 00:28:20 GMT 33.284454 -117.106949 4,300 85 103 -192
2018-06-21 00:28:17 GMT 33.284180 -117.109207 4,300 79 102 -192
2018-06-21 00:28:14 GMT 33.284042 -117.109970 4,300 73 100 -128
2018-06-21 00:28:08 GMT 33.283127 -117.112831 4,325 62 97 -128
2018-06-21 00:28:02 GMT 33.281708 -117.115303 4,350 47 94 -256
2018-06-21 00:27:59 GMT 33.280567 -117.116501 4,350 356 88 -64
2018-06-21 00:27:52 GMT 33.277679 -117.117905 4,350 355 88 -128
2018-06-21 00:27:45 GMT 33.274200 -117.117722 4,350 351 88 -192
2018-06-21 00:27:39 GMT 33.272461 -117.117386 4,375 351 89 -128
2018-06-21 00:27:36 GMT 33.271210 -117.117172 4,375 351 89 -128
2018-06-21 00:27:31 GMT 33.269165 -117.116837 4,400 354 87 -128
2018-06-21 00:27:27 GMT 33.267288 -117.116562 4,400 352 86 -64
2018-06-21 00:27:23 GMT 33.265640 -117.116287 4,400 351 87 64
2018-06-21 00:27:20 GMT 33.264862 -117.116127 4,400 351 87 64
2018-06-21 00:27:15 GMT 33.262318 -117.115601 4,400 351 88 0
2018-06-21 00:27:09 GMT 33.260605 -117.115250 4,400 351 89 -128
2018-06-21 00:27:01 GMT 33.256989 -117.114532 4,400 350 87 -64
2018-06-21 00:26:58 GMT 33.256222 -117.114311 4,400 350 87 -64
2018-06-21 00:26:50 GMT 33.252636 -117.113640 4,425 353 86 0
2018-06-21 00:26:47 GMT 33.251846 -117.113525 4,400 354 88 128
2018-06-21 00:26:40 GMT 33.248352 -117.113022 4,400 354 89 0
2018-06-21 00:26:36 GMT 33.247101 -117.112831 4,400 352 93 128
2018-06-21 00:26:31 GMT 33.244446 -117.112389 4,400 352 93 128
2018-06-21 00:26:28 GMT 33.243137 -117.112183 4,375 352 94 128
2018-06-21 00:26:24 GMT 33.241837 -117.111961 4,375 351 94 128
2018-06-21 00:26:20 GMT 33.240112 -117.111626 4,375 351 95 -128
2018-06-21 00:26:16 GMT 33.238541 -117.111237 4,400 350 94 -192
2018-06-21 00:26:13 GMT 33.236996 -117.110893 4,400 349 93 -192
2018-06-21 00:26:05 GMT 33.233829 -117.110222 4,400 351 92 0
2018-06-21 00:26:01 GMT 33.231548 -117.109718 4,375 349 92 128
2018-06-21 00:25:54 GMT 33.228943 -117.109047 4,400 348 95 256
2018-06-21 00:25:51 GMT 33.228058 -117.108818 4,375 347 95 256
2018-06-21 00:25:44 GMT 33.224564 -117.107758 4,375 345 97 -64
2018-06-21 00:25:41 GMT 33.223480 -117.107391 4,375 344 97 -192
2018-06-21 00:25:38 GMT 33.222336 -117.106949 4,400 5 94 64
2018-06-21 00:25:33 GMT 33.219818 -117.106071 4,400 347 96 -128
2018-06-21 00:25:30 GMT 33.218746 -117.105797 4,400 351 96 -128
2018-06-21 00:25:22 GMT 33.214836 -117.105011 4,425 350 94 -256
2018-06-21 00:25:19 GMT 33.213997 -117.104843 4,450 350 94 -256
2018-06-21 00:25:16 GMT 33.212265 -117.104424 4,450 350 94 -256
2018-06-21 00:25:08 GMT 33.209427 -117.103874 4,450 350 92 192
2018-06-21 00:25:05 GMT 33.207687 -117.103493 4,450 350 92 192
2018-06-21 00:25:01 GMT 33.205666 -117.103104 4,450 349 93 256
2018-06-21 00:24:57 GMT 33.204575 -117.102829 4,450 348 95 192
2018-06-21 00:24:54 GMT 33.202965 -117.102371 4,450 348 95 -128
2018-06-21 00:24:49 GMT 33.201233 -117.101952 4,500 348 94 -128
2018-06-21 00:24:46 GMT 33.199814 -117.101570 4,475 348 94 -128
2018-06-21 00:24:42 GMT 33.197800 -117.101021 4,475 348 94 -128
2018-06-21 00:24:37 GMT 33.195564 -117.100243 4,525 342 90 -384
2018-06-21 00:24:33 GMT 33.194550 -117.099808 4,525 355 91 192
2018-06-21 00:24:24 GMT 33.190815 -117.099457 4,500 6 94 64
2018-06-21 00:24:18 GMT 33.187977 -117.099960 4,500 8 96 -64
2018-06-21 00:24:14 GMT 33.186356 -117.100250 4,525 8 96 -64
2018-06-21 00:24:08 GMT 33.183105 -117.100906 4,500 8 96 -64
2018-06-21 00:24:05 GMT 33.181961 -117.101074 4,500 8 95 -128
2018-06-21 00:24:02 GMT 33.180679 -117.101295 4,525 7 93 -192
2018-06-21 00:23:55 GMT 33.177521 -117.101791 4,525 7 93 -64
2018-06-21 00:23:51 GMT 33.175686 -117.102097 4,525 6 93 64
2018-06-21 00:23:47 GMT 33.173962 -117.102264 4,525 5 94 64
2018-06-21 00:23:43 GMT 33.172844 -117.102432 4,525 4 94 64
2018-06-21 00:23:36 GMT 33.169121 -117.102715 4,525 2 94 -192
2018-06-21 00:23:32 GMT 33.167118 -117.102768 4,550 1 92 -192
2018-06-21 00:23:25 GMT 33.164604 -117.102821 4,550 0 92 64
2018-06-21 00:23:21 GMT 33.162975 -117.102821 4,550 0 92 64
2018-06-21 00:23:13 GMT 33.159950 -117.102715 4,550 357 91 -64
2018-06-21 00:23:09 GMT 33.158367 -117.102600 4,550 356 90 -128
2018-06-21 00:23:02 GMT 33.155388 -117.102203 4,550 353 89 0
2018-06-21 00:22:59 GMT 33.153900 -117.101952 4,550 352 88 0
2018-06-21 00:22:53 GMT 33.151932 -117.101624 4,550 352 88 128
2018-06-21 00:22:50 GMT 33.150501 -117.101364 4,550 354 89 0
2018-06-21 00:22:43 GMT 33.147491 -117.101074 4,525 357 89 128
2018-06-21 00:22:40 GMT 33.146301 -117.100967 4,525 355 89 128
2018-06-21 00:22:35 GMT 33.144169 -117.100693 4,525 352 88 64
2018-06-21 00:22:32 GMT 33.143005 -117.100471 4,500 351 89 64
2018-06-21 00:22:29 GMT 33.141609 -117.100189 4,500 350 89 64
2018-06-21 00:22:24 GMT 33.139297 -117.099648 4,500 348 89 192
2018-06-21 00:22:21 GMT 33.138767 -117.099457 4,500 347 90 192
2018-06-21 00:22:18 GMT 33.137512 -117.099121 4,475 346 90 64
2018-06-21 00:22:13 GMT 33.135361 -117.098434 4,450 342 89 256
2018-06-21 00:22:09 GMT 33.133228 -117.097778 4,475 345 90 -64
2018-06-21 00:22:05 GMT 33.131645 -117.097275 4,475 344 89 0
2018-06-21 00:22:00 GMT 33.130051 -117.096680 4,475 343 89 128
2018-06-21 00:21:55 GMT 33.127853 -117.095802 4,450 341 91 320
2018-06-21 00:21:51 GMT 33.126205 -117.095085 4,450 340 92 0
2018-06-21 00:21:47 GMT 33.124897 -117.094528 4,450 339 92 0
2018-06-21 00:21:41 GMT 33.122681 -117.093437 4,450 337 91 -192
2018-06-21 00:21:33 GMT 33.118099 -117.090996 4,450 336 86 -128
2018-06-21 00:21:26 GMT 33.117050 -117.090416 4,475 335 84 -64
2018-06-21 00:21:19 GMT 33.114700 -117.089088 4,400 335 84 256
2018-06-21 00:21:15 GMT 33.113022 -117.088112 4,400 334 83 -64
2018-06-21 00:21:07 GMT 33.110413 -117.086685 4,375 337 82 320
2018-06-21 00:21:04 GMT 33.109394 -117.086174 4,375 338 82 256
2018-06-21 00:20:59 GMT 33.107159 -117.085052 4,350 338 81 192
2018-06-21 00:20:55 GMT 33.105743 -117.084373 4,325 339 80 256
2018-06-21 00:20:47 GMT 33.103226 -117.083115 4,300 337 79 384
2018-06-21 00:20:43 GMT 33.102180 -117.082588 4,250 336 80 640
2018-06-21 00:20:37 GMT 33.099804 -117.081245 4,200 333 84 448
2018-06-21 00:20:34 GMT 33.098465 -117.080368 4,175 332 85 256
2018-06-21 00:20:30 GMT 33.097595 -117.079819 4,150 332 85 320
2018-06-21 00:20:26 GMT 33.095993 -117.078827 4,150 333 85 448
2018-06-21 00:20:23 GMT 33.094803 -117.078110 4,125 333 86 512
2018-06-21 00:20:19 GMT 33.093708 -117.077431 4,100 332 87 448
2018-06-21 00:20:16 GMT 33.092285 -117.076462 4,075 328 86 64
2018-06-21 00:20:11 GMT 33.090866 -117.075417 4,075 327 85 128
2018-06-21 00:20:08 GMT 33.089981 -117.074684 4,075 326 84 192
2018-06-21 00:20:03 GMT 33.088352 -117.073395 4,000 325 86 832
2018-06-21 00:20:00 GMT 33.087296 -117.072456 3,975 325 90 576
2018-06-21 00:19:55 GMT 33.085186 -117.070595 3,950 323 89 128
2018-06-21 00:19:51 GMT 33.083790 -117.069305 3,950 324 90 256
2018-06-21 00:19:44 GMT 33.081696 -117.067513 3,925 330 89 256
2018-06-21 00:19:40 GMT 33.080154 -117.066414 3,900 331 90 256
2018-06-21 00:19:35 GMT 33.078716 -117.065437 3,900 332 89 192
2018-06-21 00:19:32 GMT 33.077599 -117.064651 3,900 331 88 192
2018-06-21 00:19:28 GMT 33.076202 -117.063698 3,875 330 89 256
2018-06-21 00:19:23 GMT 33.073929 -117.062180 3,850 333 90 448
2018-06-21 00:19:19 GMT 33.072510 -117.061302 3,825 333 91 192
2018-06-21 00:19:11 GMT 33.069443 -117.059494 3,800 333 89 256
2018-06-21 00:19:07 GMT 33.068054 -117.058594 3,800 328 89 192
2018-06-21 00:19:01 GMT 33.066425 -117.056915 3,775 271 99 -128
2018-06-21 00:18:56 GMT 33.065460 -117.055038 3,750 291 94 448
2018-06-21 00:18:51 GMT 33.064983 -117.051758 3,750 271 99 -128
2018-06-21 00:18:47 GMT 33.064983 -117.049240 3,750 269 97 -128
2018-06-21 00:18:39 GMT 33.065094 -117.045647 3,750 267 93 0
2018-06-21 00:18:35 GMT 33.065186 -117.043564 3,750 269 90 64
2018-06-21 00:18:29 GMT 33.065170 -117.040665 3,725 275 87 256
2018-06-21 00:18:25 GMT 33.065029 -117.038757 3,700 275 87 256
2018-06-21 00:18:19 GMT 33.064892 -117.035675 3,700 272 86 192
2018-06-21 00:18:15 GMT 33.064892 -117.033371 3,650 270 86 384
2018-06-21 00:18:07 GMT 33.064983 -117.030457 3,600 267 87 256
2018-06-21 00:18:03 GMT 33.065048 -117.028511 3,600 267 87 256
2018-06-21 00:17:57 GMT 33.065140 -117.025543 3,500 272 85 512
2018-06-21 00:17:52 GMT 33.065125 -117.023338 3,525 275 85 448
2018-06-21 00:17:44 GMT 33.064682 -117.019608 3,475 283 83 384
2018-06-21 00:17:41 GMT 33.064407 -117.018234 3,450 285 83 512
2018-06-21 00:17:34 GMT 33.063629 -117.015274 3,400 291 86 896
2018-06-21 00:17:30 GMT 33.063076 -117.013588 3,325 291 90 896
2018-06-21 00:17:25 GMT 33.062119 -117.010109 3,250 286 96 512
2018-06-21 00:17:21 GMT 33.061630 -117.007812 3,200 285 97 448
2018-06-21 00:17:17 GMT 33.061214 -117.005852 3,200 284 98 384
2018-06-21 00:17:12 GMT 33.060928 -117.004288 3,175 283 98 448
2018-06-21 00:17:09 GMT 33.060516 -117.001984 3,125 281 96 320
2018-06-21 00:17:02 GMT 33.060047 -116.999069 3,125 280 94 192
2018-06-21 00:16:58 GMT 33.059738 -116.996597 3,100 279 91 512
2018-06-21 00:16:53 GMT 33.059444 -116.993797 3,025 278 93 768
2018-06-21 00:16:48 GMT 33.059097 -116.991043 2,975 278 95 576
2018-06-21 00:16:41 GMT 33.058823 -116.988190 2,950 276 94 320
2018-06-21 00:16:36 GMT 33.058514 -116.985054 2,900 278 93 448
2018-06-21 00:16:30 GMT 33.058273 -116.982590 2,850 278 93 704
2018-06-21 00:16:24 GMT 33.057907 -116.979729 2,825 279 93 320
2018-06-21 00:16:21 GMT 33.056885 -116.973961 2,750 284 90 320
2018-06-21 00:16:14 GMT 33.056976 -116.974403 2,750 284 90 512
2018-06-21 00:16:02 GMT 33.055302 -116.967453 2,650 292 82 448
2018-06-21 00:15:48 GMT 33.052834 -116.961403 2,550 301 81 448
2018-06-21 00:15:38 GMT 33.051670 -116.959160 2,500 303 79 576
2018-06-21 00:15:30 GMT 33.050034 -116.956055 2,400 301 81 512
2018-06-21 00:15:27 GMT 33.049576 -116.955063 2,375 301 81 384
2018-06-21 00:15:20 GMT 33.048111 -116.952156 2,325 300 78 640
2018-06-21 00:15:16 GMT 33.047653 -116.951164 2,300 300 77 640
2018-06-21 00:15:05 GMT 33.045712 -116.946938 2,200 300 76 448
2018-06-21 00:14:58 GMT 33.044357 -116.944138 2,075 302 78 768
2018-06-21 00:14:54 GMT 33.043755 -116.942902 2,050 302 78 576
2018-06-21 00:14:48 GMT 33.042404 -116.939545 2,000 288 75 192
2018-06-21 00:14:43 GMT 33.042206 -116.938698 2,000 283 73 320
2018-06-21 00:14:35 GMT 33.041847 -116.935509 1,925 278 70 704
2018-06-21 00:14:32 GMT 33.041710 -116.934326 1,900 280 69 576
2018-06-21 00:14:25 GMT 33.041241 -116.931358 1,800 282 71 704
2018-06-21 00:14:21 GMT 33.041061 -116.930069 1,775 282 71 576
2018-06-21 00:14:14 GMT 33.040604 -116.927048 1,700 279 70 832
2018-06-21 00:14:10 GMT 33.040466 -116.925896 1,650 279 70 768
2018-06-21 00:14:03 GMT 33.040077 -116.922562 1,550 278 72 384
2018-06-21 00:13:58 GMT 33.039890 -116.921043 1,525 275 71 512
2018-06-21 00:13:51 GMT 33.039597 -116.917931 1,500 283 66 448
2018-06-21 00:13:47 GMT 33.039425 -116.917023 0 281 67
2018-06-21 00:13:39 GMT 33.038876 -116.913536 0 278 64
2018-06-21 00:13:30 GMT 33.038506 -116.910957 0 281 57
2018-06-21 00:13:19 GMT 33.038097 -116.908211 0 278 26
2018-06-21 00:13:09 GMT 33.038074 -116.907440 0 11
2018-06-21 00:12:57 GMT 33.038391 -116.907242 0 6
2018-06-21 00:12:31 GMT 33.038544 -116.907089 0 0
2018-06-21 00:12:11 GMT 33.038544 -116.907097 0 0
2018-06-21 00:12:02 GMT 33.038544 -116.907082 0 0
2018-06-21 00:11:51 GMT 33.038544 -116.907104 0 0
2018-06-21 00:11:32 GMT 33.038544 -116.907097 0 0
2018-06-21 00:11:17 GMT 33.038544 -116.907104 0 0
2018-06-21 00:11:06 GMT 33.038544 -116.907097 0 0
2018-06-21 00:10:37 GMT 33.038544 -116.907089 0 0
2018-06-21 00:10:26 GMT 33.038544 -116.907104 0 0
2018-06-21 00:10:15 GMT 33.038555 -116.907104 0 0
2018-06-21 00:10:04 GMT 33.038589 -116.906975 0 5
2018-06-21 00:09:55 GMT 33.038811 -116.907074 0 8
2018-06-21 00:09:44 GMT 33.038704 -116.907547 0 9
2018-06-21 00:09:32 GMT 33.038818 -116.908073 0 8
2018-06-21 00:09:21 GMT 33.039032 -116.908218 0 6
2018-06-21 00:08:31 GMT 33.039127 -116.908073 0 4
2018-06-21 00:08:26 GMT 33.039181 -116.907944 0 4
2018-06-21 00:07:57 GMT 33.039322 -116.907890 0 0
2018-06-21 00:07:47 GMT 33.039310 -116.907906 0 0
2018-06-21 00:07:32 GMT 33.039310 -116.907898 0 0
2018-06-21 00:07:12 GMT 33.039310 -116.907921 0 0
2018-06-21 00:07:06 GMT 33.039310 -116.907913 0 0
2018-06-21 00:06:37 GMT 33.039322 -116.907921 0 0
2018-06-21 00:06:25 GMT 33.039333 -116.907928 0 0
2018-06-21 00:06:15 GMT 33.039356 -116.907944 0 0
We lost coverage of the aircraft here for a total of 76 minutes
2018-06-20 22:50:33 GMT 33.039356 -116.907799 1,350 287 0 0
2018-06-20 22:50:24 GMT 33.039368 -116.907799 1,350 287 0 0
2018-06-20 22:50:13 GMT 33.039368 -116.907814 1,350 287 0 0
2018-06-20 22:50:02 GMT 33.039379 -116.907822 1,350 287 0 0
2018-06-20 22:49:49 GMT 33.039276 -116.907898 1,350 287 4 0
2018-06-20 22:49:41 GMT 33.039146 -116.908028 1,350 287 6 0
2018-06-20 22:49:29 GMT 33.038960 -116.908218 1,350 287 6 0
2018-06-20 22:49:15 GMT 33.038910 -116.908829 1,350 287 9 0
2018-06-20 22:49:00 GMT 33.039032 -116.909676 1,350 287 11 0
2018-06-20 22:48:53 GMT 33.039070 -116.910019 1,350 287 9 0
2018-06-20 22:48:46 GMT 33.039112 -116.910194 1,350 287 7 0
2018-06-20 22:48:35 GMT 33.039192 -116.910789 1,350 287 12 0
2018-06-20 22:48:26 GMT 33.039288 -116.911369 1,350 287 13 0
2018-06-20 22:48:11 GMT 33.039436 -116.912354 1,350 287 12 0
2018-06-20 22:48:01 GMT 33.039532 -116.912971 1,350 287 12 0
2018-06-20 22:47:53 GMT 33.039589 -116.913406 1,350 287 11 0
2018-06-20 22:47:40 GMT 33.039677 -116.914032 1,350 287 10 0
2018-06-20 22:46:22 GMT 33.038910 -116.913979 1,350 287 17 0
2018-06-20 22:46:18 GMT 33.038822 -116.913422 1,325 281 33 0
2018-06-20 22:46:06 GMT 33.038544 -116.911118 1,350 281 45 -256
2018-06-20 22:45:54 GMT 33.037994 -116.907494 1,475 282 60 -768
2018-06-20 22:45:49 GMT 33.037750 -116.906021 1,475 282 60 -768
2018-06-20 22:45:45 GMT 33.037537 -116.904472 1,525 279 63 -576
2018-06-20 22:45:33 GMT 33.036987 -116.900681 1,700 282 59 -1088
2018-06-20 22:45:22 GMT 33.036484 -116.897171 1,850 282 62 -1088
2018-06-20 22:45:12 GMT 33.036118 -116.893486 1,975 272 67 -704
2018-06-20 22:45:02 GMT 33.036209 -116.889587 2,075 266 70 -832
2018-06-20 22:44:58 GMT 33.036346 -116.888107 2,125 265 68 -768
2018-06-20 22:44:51 GMT 33.036728 -116.885567 2,175 256 70 0
2018-06-20 22:44:40 GMT 33.038170 -116.881531 2,225 236 76 -384
2018-06-20 22:44:32 GMT 33.040375 -116.878983 2,275 208 76 -576
2018-06-20 22:44:29 GMT 33.041382 -116.878441 2,300 205 76 -448
2018-06-20 22:44:19 GMT 33.044724 -116.877777 2,350 177 78 -512
2018-06-20 22:44:09 GMT 33.048458 -116.878441 2,425 137 79 128
2018-06-20 22:44:06 GMT 33.048889 -116.878601 2,425 137 79 128
2018-06-20 22:43:57 GMT 33.051529 -116.880630 2,425 127 85 128
2018-06-20 22:43:46 GMT 33.053879 -116.885300 2,425 118 91 256
2018-06-20 22:43:35 GMT 33.056076 -116.890244 2,425 114 95 256
2018-06-20 22:43:25 GMT 33.057861 -116.895264 2,425 111 94 -128
2018-06-20 22:43:14 GMT 33.059586 -116.900475 2,450 110 95 -64
2018-06-20 22:43:02 GMT 33.061493 -116.906586 2,475 112 96 -320
2018-06-20 22:42:52 GMT 33.063633 -116.911736 2,575 118 96 -64
2018-06-20 22:42:42 GMT 33.066101 -116.916557 2,600 124 101 -1024
2018-06-20 22:42:31 GMT 33.068985 -116.920517 2,800 144 101 -640
2018-06-20 22:42:25 GMT 33.071594 -116.922615 2,800 144 101 -640
2018-06-20 22:42:19 GMT 33.073875 -116.923843 2,900 156 104 -896
2018-06-20 22:42:08 GMT 33.079090 -116.926483 3,050 157 108 -1344
2018-06-20 22:42:04 GMT 33.081482 -116.927544 3,150 166 105 -1152
2018-06-20 22:41:58 GMT 33.083862 -116.928040 3,225 178 107 -896
2018-06-20 22:41:54 GMT 33.086105 -116.928093 3,300 185 108 -896
2018-06-20 22:41:48 GMT 33.089333 -116.927711 3,400 189 107 -1088
2018-06-20 22:41:43 GMT 33.091095 -116.927437 3,450 188 105 -1024
2018-06-20 22:41:36 GMT 33.094452 -116.926987 3,550 186 105 -960
2018-06-20 22:41:33 GMT 33.096779 -116.926765 3,625 186 105 -1152
2018-06-20 22:41:29 GMT 33.098221 -116.926590 3,675 186 105 -1088
2018-06-20 22:41:26 GMT 33.099667 -116.926369 3,750 187 104 -1152
2018-06-20 22:41:20 GMT 33.102264 -116.926010 3,825 190 102 -960
2018-06-20 22:41:16 GMT 33.104874 -116.925461 3,900 190 102 -896
2018-06-20 22:41:10 GMT 33.107254 -116.925026 3,975 188 103 -896
2018-06-20 22:41:05 GMT 33.109863 -116.924690 4,050 186 103 -896
2018-06-20 22:41:00 GMT 33.112232 -116.924408 4,100 186 105 -704
2018-06-20 22:40:53 GMT 33.115444 -116.924011 4,200 186 107 -1088
2018-06-20 22:40:49 GMT 33.117401 -116.923843 4,275 186 106 -1088
2018-06-20 22:40:42 GMT 33.120708 -116.923569 4,375 183 108 -960
2018-06-20 22:40:39 GMT 33.122803 -116.923454 4,450 181 108 -1024
2018-06-20 22:40:31 GMT 33.126106 -116.923508 4,550 178 108 -1088
2018-06-20 22:40:28 GMT 33.127922 -116.923569 4,600 178 109 -960
2018-06-20 22:40:22 GMT 33.131367 -116.923622 4,725 178 109 -896
2018-06-20 22:40:18 GMT 33.133511 -116.923676 4,775 178 111 -640
2018-06-20 22:40:15 GMT 33.134624 -116.923737 4,800 177 113 -832
2018-06-20 22:40:11 GMT 33.136734 -116.923813 4,850 177 113 -1024
2018-06-20 22:40:06 GMT 33.139282 -116.923904 4,925 177 111 -960
2018-06-20 22:39:59 GMT 33.142632 -116.924126 5,000 176 110 -896
2018-06-20 22:39:54 GMT 33.144962 -116.924294 5,125 175 112 -576
2018-06-20 22:39:48 GMT 33.148079 -116.924522 5,125 174 112 -512
2018-06-20 22:39:40 GMT 33.152939 -116.925072 5,300 177 109 -1024
2018-06-20 22:39:37 GMT 33.154270 -116.925194 5,300 177 109 -1024
2018-06-20 22:39:27 GMT 33.159161 -116.924355 5,400 200 103 -320
2018-06-20 22:39:23 GMT 33.160950 -116.923424 5,425 207 103 -320
2018-06-20 22:39:17 GMT 33.163696 -116.921722 5,475 207 102 -704
2018-06-20 22:39:12 GMT 33.165161 -116.920898 5,500 204 100 -704
2018-06-20 22:39:08 GMT 33.167538 -116.919701 5,550 203 99 -192
2018-06-20 22:39:05 GMT 33.168045 -116.919472 5,550 203 99 -64
2018-06-20 22:39:02 GMT 33.169773 -116.918633 5,550 200 103 64
2018-06-20 22:38:59 GMT 33.170658 -116.918243 5,550 200 103 64
2018-06-20 22:38:55 GMT 33.172894 -116.917290 5,525 201 103 64
2018-06-20 22:38:52 GMT 33.174454 -116.916611 5,525 202 104 0
2018-06-20 22:38:45 GMT 33.177887 -116.915184 5,525 195 105 0
2018-06-20 22:38:39 GMT 33.180527 -116.914658 5,525 188 105 0
2018-06-20 22:38:33 GMT 33.183365 -116.914375 5,525 184 105 -64
2018-06-20 22:38:29 GMT 33.184753 -116.914307 5,550 184 100 -64
2018-06-20 22:38:25 GMT 33.187325 -116.914207 5,575 183 100 -192
2018-06-20 22:38:22 GMT 33.188095 -116.914139 5,575 184 99 -128
2018-06-20 22:38:19 GMT 33.189514 -116.913979 5,550 184 100 -64
2018-06-20 22:38:13 GMT 33.192902 -116.913704 5,550 168 98 -192
2018-06-20 22:38:06 GMT 33.196075 -116.914825 5,550 155 97 320
2018-06-20 22:38:02 GMT 33.197617 -116.915955 5,550 143 98 384
2018-06-20 22:37:56 GMT 33.199566 -116.918015 5,550 137 101 192
2018-06-20 22:37:49 GMT 33.201828 -116.920349 5,525 140 100 -64
2018-06-20 22:37:42 GMT 33.204407 -116.922836 5,525 139 100 128
2018-06-20 22:37:38 GMT 33.206131 -116.924690 5,525 136 101 64
2018-06-20 22:37:31 GMT 33.208134 -116.926987 5,525 137 101 64
2018-06-20 22:37:28 GMT 33.209389 -116.928329 5,500 139 101 64
2018-06-20 22:37:24 GMT 33.210663 -116.929634 5,500 139 102 128
2018-06-20 22:37:21 GMT 33.211903 -116.930855 5,475 139 102 64
2018-06-20 22:37:15 GMT 33.214138 -116.933151 5,475 139 104 192
2018-06-20 22:37:10 GMT 33.216000 -116.935059 5,475 138 104 -128
2018-06-20 22:37:05 GMT 33.217392 -116.936501 5,500 138 104 -128
2018-06-20 22:36:59 GMT 33.219864 -116.938972 5,525 139 106 -192
2018-06-20 22:36:55 GMT 33.221447 -116.940552 5,500 139 106 -192
2018-06-20 22:36:49 GMT 33.223866 -116.942963 5,525 141 103 -256
2018-06-20 22:36:45 GMT 33.225357 -116.944420 5,550 140 104 -320
2018-06-20 22:36:42 GMT 33.225914 -116.944977 5,550 140 104 -320
2018-06-20 22:36:37 GMT 33.227875 -116.946823 5,550 141 103 -64
2018-06-20 22:36:33 GMT 33.229267 -116.948174 5,550 142 104 -64
2018-06-20 22:36:27 GMT 33.232059 -116.950638 5,550 142 105 256
2018-06-20 22:36:24 GMT 33.233505 -116.951988 5,525 142 107 384
2018-06-20 22:36:21 GMT 33.234062 -116.952492 5,525 142 107 256
2018-06-20 22:36:15 GMT 33.236298 -116.954460 5,550 142 107 -640
2018-06-20 22:36:12 GMT 33.238113 -116.956131 5,600 142 104 -448
2018-06-20 22:36:05 GMT 33.240326 -116.958199 5,600 142 103 -64
2018-06-20 22:36:02 GMT 33.241837 -116.959572 5,600 142 102 0
2018-06-20 22:35:54 GMT 33.244629 -116.962044 5,600 143 102 -320
2018-06-20 22:35:50 GMT 33.246120 -116.963310 5,625 144 100 -448
2018-06-20 22:35:44 GMT 33.248402 -116.965218 5,650 143 94 -320
2018-06-20 22:35:41 GMT 33.249611 -116.966278 5,675 143 93 128
2018-06-20 22:35:30 GMT 33.253334 -116.969475 5,600 143 98 320
2018-06-20 22:35:27 GMT 33.254776 -116.970764 5,600 143 98 320
2018-06-20 22:35:23 GMT 33.256256 -116.972153 5,600 142 99 64
2018-06-20 22:35:20 GMT 33.257355 -116.973190 5,600 141 98 -64
2018-06-20 22:35:17 GMT 33.257896 -116.973793 5,600 141 98 -64
2018-06-20 22:35:10 GMT 33.260193 -116.975937 5,600 140 95 128
2018-06-20 22:35:07 GMT 33.261433 -116.977150 5,600 139 96 64
2018-06-20 22:34:58 GMT 33.264832 -116.980515 5,575 141 99 128
2018-06-20 22:34:55 GMT 33.265949 -116.981583 5,575 141 99 128
2018-06-20 22:34:50 GMT 33.267254 -116.982758 5,575 143 105 64
2018-06-20 22:34:46 GMT 33.269161 -116.984550 5,575 141 100 128
2018-06-20 22:34:38 GMT 33.272278 -116.987419 5,550 143 103 128
2018-06-20 22:34:34 GMT 33.273651 -116.988571 5,550 143 103 64
2018-06-20 22:34:30 GMT 33.275208 -116.989944 5,550 143 103 -128
2018-06-20 22:34:27 GMT 33.276123 -116.990768 5,550 143 103 -192
2018-06-20 22:34:24 GMT 33.277821 -116.992287 5,550 143 102 0
2018-06-20 22:34:16 GMT 33.280846 -116.994980 5,550 143 103 128
2018-06-20 22:34:12 GMT 33.281754 -116.995773 5,550 143 104 128
2018-06-20 22:34:09 GMT 33.282990 -116.996826 5,550 146 104 -64
2018-06-20 22:34:04 GMT 33.285187 -116.998734 5,550 145 104 -64
2018-06-20 22:33:57 GMT 33.287785 -117.000809 5,550 147 103 64
2018-06-20 22:33:54 GMT 33.289169 -117.001869 5,550 147 103 64
2018-06-20 22:33:47 GMT 33.291962 -117.003952 5,525 149 103 128
2018-06-20 22:33:44 GMT 33.293602 -117.005066 5,525 149 105 256
2018-06-20 22:33:41 GMT 33.294434 -117.005661 5,500 149 105 64
2018-06-20 22:33:36 GMT 33.296768 -117.007416 5,525 145 104 0
2018-06-20 22:33:33 GMT 33.297729 -117.008186 5,525 144 104 0
2018-06-20 22:33:30 GMT 33.298954 -117.009216 5,525 144 104 0
2018-06-20 22:33:26 GMT 33.300865 -117.010895 5,500 144 104 0
2018-06-20 22:33:23 GMT 33.302074 -117.011963 5,500 143 104 128
2018-06-20 22:33:20 GMT 33.303238 -117.012970 5,500 144 104 0
2018-06-20 22:33:17 GMT 33.304356 -117.013924 5,500 144 104 0
2018-06-20 22:33:09 GMT 33.307251 -117.016373 5,500 144 103 -64
2018-06-20 22:33:01 GMT 33.310314 -117.019028 5,500 144 103 64
2018-06-20 22:32:58 GMT 33.311337 -117.019867 5,500 145 103 128
2018-06-20 22:32:53 GMT 33.313805 -117.021996 5,500 144 104 128
2018-06-20 22:32:50 GMT 33.314438 -117.022469 5,475 144 104 128
2018-06-20 22:32:46 GMT 33.316360 -117.024170 5,475 144 104 128
2018-06-20 22:32:43 GMT 33.317780 -117.025375 5,475 144 106 0
2018-06-20 22:32:39 GMT 33.318787 -117.026199 5,500 149 105 -128
2018-06-20 22:32:34 GMT 33.320984 -117.027847 5,500 148 105 -128
2018-06-20 22:32:31 GMT 33.322186 -117.028725 5,500 149 105 -64
2018-06-20 22:32:28 GMT 33.323627 -117.029732 5,500 150 104 0
2018-06-20 22:32:21 GMT 33.326660 -117.031807 5,500 148 105 128
2018-06-20 22:32:17 GMT 33.328033 -117.032852 5,500 148 105 128
2018-06-20 22:32:14 GMT 33.329269 -117.033730 5,475 147 105 128
2018-06-20 22:32:10 GMT 33.331169 -117.035225 5,475 146 105 0
2018-06-20 22:32:05 GMT 33.333069 -117.036697 5,475 145 106 0
2018-06-20 22:32:02 GMT 33.334122 -117.037575 5,475 144 106 -192
2018-06-20 22:31:56 GMT 33.336639 -117.039658 5,500 142 105 -128
2018-06-20 22:31:51 GMT 33.338699 -117.041527 5,500 142 104 -128
2018-06-20 22:31:45 GMT 33.340805 -117.043503 5,500 140 104 -192
2018-06-20 22:31:38 GMT 33.343647 -117.046547 5,525 141 102 128
2018-06-20 22:31:34 GMT 33.344833 -117.047844 5,525 139 101 0
2018-06-20 22:31:31 GMT 33.346111 -117.049072 5,525 143 103 192
2018-06-20 22:31:20 GMT 33.350208 -117.052658 5,500 143 105 64
2018-06-20 22:31:13 GMT 33.352936 -117.055038 5,500 143 105 -64
2018-06-20 22:31:10 GMT 33.354118 -117.056076 5,500 142 104 -64
2018-06-20 22:31:03 GMT 33.356827 -117.058556 5,500 142 104 0
2018-06-20 22:31:00 GMT 33.358383 -117.059982 5,500 143 104 64
2018-06-20 22:30:54 GMT 33.361149 -117.062408 5,500 143 105 128
2018-06-20 22:30:51 GMT 33.361954 -117.063118 5,500 144 105 64
2018-06-20 22:30:43 GMT 33.365292 -117.065941 5,500 143 105 0
2018-06-20 22:30:40 GMT 33.366257 -117.066795 5,500 141 105 0
2018-06-20 22:30:34 GMT 33.368599 -117.069138 5,500 140 105 0
2018-06-20 22:30:31 GMT 33.369343 -117.069809 5,500 140 105 0
2018-06-20 22:30:28 GMT 33.370365 -117.070816 5,500 141 106 0
2018-06-20 22:30:25 GMT 33.371578 -117.071938 5,500 142 105 0
2018-06-20 22:30:19 GMT 33.373993 -117.074158 5,500 140 105 0
2018-06-20 22:30:16 GMT 33.375229 -117.075363 5,500 140 105 0
2018-06-20 22:30:09 GMT 33.377609 -117.077675 5,500 139 106 0
2018-06-20 22:30:06 GMT 33.379307 -117.079453 5,500 139 106 0
2018-06-20 22:30:00 GMT 33.381363 -117.081467 5,500 141 106 0
2018-06-20 22:29:57 GMT 33.382645 -117.082672 5,500 141 106 -64
2018-06-20 22:29:54 GMT 33.383194 -117.083221 5,500 142 106 -128
2018-06-20 22:29:50 GMT 33.385391 -117.085197 5,500 143 105 -192
2018-06-20 22:29:46 GMT 33.386444 -117.086136 5,500 142 104 -128
2018-06-20 22:29:42 GMT 33.388046 -117.087616 5,500 142 104 64
2018-06-20 22:29:38 GMT 33.389687 -117.089088 5,500 143 105 0
2018-06-20 22:29:35 GMT 33.390896 -117.090157 5,500 143 105 64
2018-06-20 22:29:32 GMT 33.391937 -117.091133 5,500 142 105 64
2018-06-20 22:29:27 GMT 33.394669 -117.093628 5,500 142 105 0
2018-06-20 22:29:23 GMT 33.395416 -117.094315 5,500 142 106 0
2018-06-20 22:29:20 GMT 33.396996 -117.095757 5,525 141 106 -128
2018-06-20 22:29:16 GMT 33.398670 -117.097389 5,525 141 105 0
2018-06-20 22:29:13 GMT 33.399261 -117.097946 5,500 141 105 0
2018-06-20 22:29:09 GMT 33.400818 -117.099426 5,500 141 104 0
2018-06-20 22:29:06 GMT 33.401962 -117.100525 5,500 141 104 0
2018-06-20 22:29:03 GMT 33.403244 -117.101677 5,500 141 104 64
2018-06-20 22:28:57 GMT 33.405533 -117.103874 5,500 141 104 64
2018-06-20 22:28:52 GMT 33.407330 -117.105568 5,500 142 107 192
2018-06-20 22:28:49 GMT 33.408401 -117.106522 5,500 142 107 192
2018-06-20 22:28:46 GMT 33.409424 -117.107445 5,500 142 107 0
2018-06-20 22:28:43 GMT 33.410843 -117.108765 5,500 143 107 -64
2018-06-20 22:28:40 GMT 33.411850 -117.109695 5,500 143 107 -64
2018-06-20 22:28:36 GMT 33.413864 -117.111458 5,500 142 107 0
2018-06-20 22:28:33 GMT 33.415150 -117.112633 5,500 142 107 64
2018-06-20 22:28:30 GMT 33.415989 -117.113419 5,500 142 107 64
2018-06-20 22:28:24 GMT 33.418625 -117.115738 5,500 142 107 -128
2018-06-20 22:28:19 GMT 33.420502 -117.117455 5,500 143 108 64
2018-06-20 22:28:12 GMT 33.423660 -117.120132 5,500 144 106 -64
2018-06-20 22:28:08 GMT 33.424713 -117.121017 5,500 145 106 64
2018-06-20 22:28:03 GMT 33.426975 -117.122833 5,500 145 108 128
2018-06-20 22:28:00 GMT 33.427998 -117.123672 5,475 146 109 192
2018-06-20 22:27:57 GMT 33.429256 -117.124626 5,475 146 110 64
2018-06-20 22:27:54 GMT 33.431213 -117.126236 5,475 145 110 -64
2018-06-20 22:27:49 GMT 33.433136 -117.127823 5,500 145 109 -128
2018-06-20 22:27:46 GMT 33.434006 -117.128540 5,500 144 109 -320
2018-06-20 22:27:41 GMT 33.436340 -117.130516 5,525 145 108 -256
2018-06-20 22:27:38 GMT 33.437820 -117.131691 5,525 150 104 -64
2018-06-20 22:27:35 GMT 33.438950 -117.132607 5,525 148 106 -128
2018-06-20 22:27:32 GMT 33.440460 -117.133652 5,525 149 105 -64
2018-06-20 22:27:29 GMT 33.441284 -117.134254 5,525 150 104 -64
2018-06-20 22:27:25 GMT 33.442886 -117.135300 5,525 152 104 -128
2018-06-20 22:27:19 GMT 33.445770 -117.137054 5,525 152 104 192
2018-06-20 22:27:13 GMT 33.447922 -117.138420 5,500 151 106 256
2018-06-20 22:27:09 GMT 33.449646 -117.139542 5,500 150 108 64
2018-06-20 22:27:05 GMT 33.451859 -117.141006 5,525 150 108 -64
2018-06-20 22:27:00 GMT 33.454056 -117.142441 5,525 152 109 128
2018-06-20 22:26:57 GMT 33.455185 -117.143127 5,500 152 110 64
2018-06-20 22:26:52 GMT 33.457466 -117.144524 5,525 151 110 -192
2018-06-20 22:26:47 GMT 33.459915 -117.146172 5,550 150 108 -384
2018-06-20 22:26:44 GMT 33.461517 -117.147270 5,550 150 106 64
2018-06-20 22:26:40 GMT 33.462448 -117.147888 5,550 151 107 128
2018-06-20 22:26:36 GMT 33.464912 -117.149681 5,625 145 105 -64
2018-06-20 22:26:30 GMT 33.466869 -117.151199 5,550 144 109 -192
2018-06-20 22:26:25 GMT 33.469391 -117.153366 5,550 144 108 -64
2018-06-20 22:26:22 GMT 33.470673 -117.154465 5,575 143 107 -192
2018-06-20 22:26:17 GMT 33.472275 -117.155899 5,575 144 106 -64
2018-06-20 22:26:14 GMT 33.473946 -117.157303 5,600 146 105 -64
2018-06-20 22:26:11 GMT 33.475018 -117.158150 5,600 145 104 -64
2018-06-20 22:26:08 GMT 33.475616 -117.158646 5,600 145 104 64
2018-06-20 22:26:03 GMT 33.478134 -117.160728 5,600 146 103 -320
2018-06-20 22:26:00 GMT 33.479599 -117.161880 5,625 145 101 -384
2018-06-20 22:25:57 GMT 33.480011 -117.162270 5,625 144 101 -320
2018-06-20 22:25:54 GMT 33.481255 -117.163307 5,625 144 99 -64
2018-06-20 22:25:49 GMT 33.483307 -117.165070 5,625 144 100 256
2018-06-20 22:25:45 GMT 33.485023 -117.166557 5,600 144 101 256
2018-06-20 22:25:41 GMT 33.486282 -117.167648 5,575 144 103 -128
2018-06-20 22:25:38 GMT 33.487400 -117.168571 5,600 143 103 0
2018-06-20 22:25:34 GMT 33.489166 -117.170143 5,600 146 103 64
2018-06-20 22:25:31 GMT 33.490425 -117.171150 5,575 146 104 64
2018-06-20 22:25:28 GMT 33.491680 -117.172157 5,575 145 104 0
2018-06-20 22:25:24 GMT 33.492752 -117.173058 5,575 144 103 -64
2018-06-20 22:25:20 GMT 33.494522 -117.174629 5,600 142 102 -192
2018-06-20 22:25:13 GMT 33.496849 -117.176872 5,600 137 99 -64
2018-06-20 22:25:10 GMT 33.500153 -117.180290 5,600 137 99 64
2018-06-20 22:25:04 GMT 33.499969 -117.180122 5,600 142 99 256
2018-06-20 22:25:01 GMT 33.501598 -117.181519 5,575 145 102 64
2018-06-20 22:24:56 GMT 33.503632 -117.183197 5,575 144 101 64
2018-06-20 22:24:52 GMT 33.504765 -117.184158 5,550 141 101 0
2018-06-20 22:24:49 GMT 33.506058 -117.185341 5,550 141 101 0
2018-06-20 22:24:45 GMT 33.507694 -117.186905 5,575 140 100 -64
2018-06-20 22:24:41 GMT 33.508759 -117.187920 5,575 140 100 -64
2018-06-20 22:24:33 GMT 33.512054 -117.191109 5,575 143 100 128
2018-06-20 22:24:30 GMT 33.512695 -117.191658 5,550 145 101 64
2018-06-20 22:24:22 GMT 33.516220 -117.194626 5,550 143 101 64
2018-06-20 22:24:18 GMT 33.517517 -117.195755 5,550 143 102 64
2018-06-20 22:24:12 GMT 33.519753 -117.197777 5,550 144 102 64
2018-06-20 22:24:08 GMT 33.521336 -117.199120 5,550 144 102 64
2018-06-20 22:24:01 GMT 33.523895 -117.201424 5,550 142 102 -64
2018-06-20 22:23:58 GMT 33.525146 -117.202530 5,550 143 102 0
2018-06-20 22:23:55 GMT 33.526318 -117.203552 5,550 143 103 64
2018-06-20 22:23:50 GMT 33.528549 -117.205460 5,550 144 103 64
2018-06-20 22:23:46 GMT 33.530045 -117.206711 5,550 142 102 0
2018-06-20 22:23:39 GMT 33.532555 -117.208984 5,550 142 102 0
2018-06-20 22:23:34 GMT 33.534210 -117.210495 5,550 143 101 -256
2018-06-20 22:23:28 GMT 33.536591 -117.212532 5,575 144 99 -256
2018-06-20 22:23:25 GMT 33.537735 -117.213463 5,575 145 97 0
2018-06-20 22:23:21 GMT 33.539291 -117.214729 5,575 146 96 64
2018-06-20 22:23:17 GMT 33.541027 -117.215820 5,550 155 98 256
2018-06-20 22:23:13 GMT 33.542564 -117.216568 5,550 159 100 64
2018-06-20 22:23:09 GMT 33.544830 -117.217674 5,550 155 101 0
2018-06-20 22:23:06 GMT 33.545334 -117.217957 5,550 154 101 0
2018-06-20 22:23:00 GMT 33.548401 -117.219749 5,550 153 101 0
2018-06-20 22:22:56 GMT 33.550289 -117.220917 5,550 153 101 64
2018-06-20 22:22:52 GMT 33.551514 -117.221596 5,550 151 100 0
2018-06-20 22:22:47 GMT 33.553738 -117.222916 5,550 152 101 -192
2018-06-20 22:22:44 GMT 33.554806 -117.223602 5,550 152 101 -192
2018-06-20 22:22:41 GMT 33.556019 -117.224350 5,575 151 100 0
2018-06-20 22:22:37 GMT 33.557598 -117.225433 5,575 151 100 0
2018-06-20 22:22:34 GMT 33.558949 -117.226295 5,575 151 99 -64
2018-06-20 22:22:30 GMT 33.560486 -117.227257 5,575 152 100 64
2018-06-20 22:22:24 GMT 33.563278 -117.228989 5,550 152 100 64
2018-06-20 22:22:18 GMT 33.565247 -117.230286 5,550 151 101 192
2018-06-20 22:22:12 GMT 33.567841 -117.231903 5,550 151 103 192
2018-06-20 22:22:09 GMT 33.569641 -117.233093 5,550 151 103 -320
2018-06-20 22:22:02 GMT 33.572216 -117.234764 5,550 151 101 -64
2018-06-20 22:21:57 GMT 33.574036 -117.235947 5,550 151 101 128
2018-06-20 22:21:52 GMT 33.576824 -117.237801 5,550 150 102 -64
2018-06-20 22:21:44 GMT 33.580643 -117.240540 5,550 147 101 -64
2018-06-20 22:21:41 GMT 33.580902 -117.240715 5,550 147 101 -64
2018-06-20 22:21:36 GMT 33.582737 -117.242149 5,575 146 100 -256
2018-06-20 22:21:30 GMT 33.585114 -117.243980 5,600 146 98 64
2018-06-20 22:21:25 GMT 33.586929 -117.245461 5,575 145 99 64
2018-06-20 22:21:20 GMT 33.589676 -117.247871 5,575 142 99 64
2018-06-20 22:21:13 GMT 33.591164 -117.249352 5,575 139 100 64
2018-06-20 22:21:10 GMT 33.592484 -117.250687 5,575 135 99 -64
2018-06-20 22:21:07 GMT 33.593582 -117.251923 5,575 135 99 -64
2018-06-20 22:21:03 GMT 33.594704 -117.253242 5,575 136 99 -64
2018-06-20 22:20:59 GMT 33.596378 -117.255135 5,575 137 98 64
2018-06-20 22:20:56 GMT 33.597519 -117.256348 5,575 137 97 64
2018-06-20 22:20:52 GMT 33.598331 -117.257256 5,575 137 97 0
2018-06-20 22:20:49 GMT 33.599670 -117.258759 5,575 136 97 0
2018-06-20 22:20:46 GMT 33.601639 -117.260971 5,575 135 97 64
2018-06-20 22:20:41 GMT 33.602097 -117.261566 5,575 135 97 64
2018-06-20 22:20:38 GMT 33.603378 -117.263130 5,550 132 99 192
2018-06-20 22:20:30 GMT 33.605438 -117.266052 5,550 128 100 64
2018-06-20 22:20:27 GMT 33.606621 -117.267723 5,550 131 100 128
2018-06-20 22:20:20 GMT 33.608643 -117.270142 5,525 136 101 192
2018-06-20 22:20:14 GMT 33.610565 -117.272324 5,500 140 100 -128
2018-06-20 22:20:08 GMT 33.612534 -117.274345 5,500 140 100 -128
2018-06-20 22:20:03 GMT 33.614502 -117.276253 5,500 145 96 256
2018-06-20 22:19:58 GMT 33.616444 -117.277847 5,500 147 97 384
2018-06-20 22:19:53 GMT 33.618301 -117.279167 5,475 150 99 256
2018-06-20 22:19:47 GMT 33.620770 -117.280830 5,450 150 100 0
2018-06-20 22:19:42 GMT 33.622650 -117.282082 5,475 151 99 0
2018-06-20 22:19:37 GMT 33.624985 -117.283646 5,450 147 103 128
2018-06-20 22:19:34 GMT 33.626263 -117.284492 5,450 150 102 64
2018-06-20 22:19:31 GMT 33.627522 -117.285347 5,450 150 102 64
2018-06-20 22:19:25 GMT 33.629471 -117.286736 5,475 149 101 -128
2018-06-20 22:19:22 GMT 33.631336 -117.288094 5,475 148 102 -64
2018-06-20 22:19:19 GMT 33.632126 -117.288635 5,475 148 102 0
2018-06-20 22:19:14 GMT 33.634232 -117.290207 5,450 147 105 320
2018-06-20 22:19:11 GMT 33.635715 -117.291351 5,450 147 107 128
2018-06-20 22:19:03 GMT 33.638599 -117.293533 5,450 147 110 128
2018-06-20 22:18:59 GMT 33.640457 -117.294914 5,475 148 109 -384
2018-06-20 22:18:54 GMT 33.642975 -117.296677 5,475 148 109 -384
2018-06-20 22:18:51 GMT 33.644623 -117.297943 5,500 146 108 -256
2018-06-20 22:18:48 GMT 33.645218 -117.298393 5,500 146 108 -256
2018-06-20 22:18:44 GMT 33.647461 -117.300186 5,500 146 108 -64
2018-06-20 22:18:40 GMT 33.648750 -117.301254 5,500 147 108 -128
2018-06-20 22:18:37 GMT 33.650070 -117.302200 5,500 148 108 -320
2018-06-20 22:18:30 GMT 33.653549 -117.304947 5,550 145 104 -256
2018-06-20 22:18:26 GMT 33.654335 -117.305550 5,550 145 103 -128
2018-06-20 22:18:19 GMT 33.657410 -117.308235 5,575 143 100 192
2018-06-20 22:18:15 GMT 33.658569 -117.309265 5,575 143 103 -192
2018-06-20 22:18:08 GMT 33.661606 -117.311897 5,575 143 100 192
2018-06-20 22:18:04 GMT 33.662762 -117.312927 5,575 143 100 192
2018-06-20 22:18:01 GMT 33.664352 -117.314308 5,550 144 102 192
2018-06-20 22:17:58 GMT 33.665695 -117.315498 5,550 143 103 128
2018-06-20 22:17:54 GMT 33.666859 -117.316475 5,550 143 103 0
2018-06-20 22:17:48 GMT 33.669159 -117.318512 5,550 143 103 64
2018-06-20 22:17:44 GMT 33.671143 -117.320251 5,525 145 103 -128
2018-06-20 22:17:36 GMT 33.674168 -117.322716 5,550 147 103 128
2018-06-20 22:17:33 GMT 33.675514 -117.323746 5,550 147 103 64
2018-06-20 22:17:26 GMT 33.677582 -117.325294 5,550 146 104 64
2018-06-20 22:17:22 GMT 33.679798 -117.327065 5,550 145 104 -128
2018-06-20 22:17:16 GMT 33.681942 -117.328896 5,650 131 94 -64
2018-06-20 22:17:11 GMT 33.684082 -117.330849 5,575 142 104 -128
2018-06-20 22:17:05 GMT 33.686085 -117.332611 5,600 140 102 -256
2018-06-20 22:17:00 GMT 33.688202 -117.334541 5,600 140 103 -192
2018-06-20 22:16:55 GMT 33.689716 -117.336044 5,625 139 100 -320
2018-06-20 22:16:52 GMT 33.690857 -117.337181 5,625 139 100 -320
2018-06-20 22:16:48 GMT 33.692139 -117.338577 5,625 136 96 -384
2018-06-20 22:16:43 GMT 33.693695 -117.340546 5,650 131 94 64
2018-06-20 22:16:40 GMT 33.694462 -117.341537 5,650 131 94 64
2018-06-20 22:16:37 GMT 33.695389 -117.342674 5,625 139 95 256
2018-06-20 22:16:33 GMT 33.697304 -117.344460 5,600 144 95 128
2018-06-20 22:16:30 GMT 33.698189 -117.345200 5,600 146 95 0
2018-06-20 22:16:27 GMT 33.699280 -117.346039 5,625 146 95 0
2018-06-20 22:16:22 GMT 33.700981 -117.347374 5,600 150 96 384
2018-06-20 22:16:19 GMT 33.702469 -117.348518 5,600 149 95 192
2018-06-20 22:16:16 GMT 33.703587 -117.349319 5,600 149 95 192
2018-06-20 22:16:11 GMT 33.705093 -117.350410 5,575 150 96 384
2018-06-20 22:16:08 GMT 33.706612 -117.351494 5,575 149 95 64
2018-06-20 22:16:05 GMT 33.707840 -117.352318 5,550 149 97 448
2018-06-20 22:16:01 GMT 33.709396 -117.353432 5,550 148 99 256
2018-06-20 22:15:58 GMT 33.710617 -117.354301 5,550 148 100 128
2018-06-20 22:15:52 GMT 33.713085 -117.356133 5,525 147 100 0
2018-06-20 22:15:48 GMT 33.714481 -117.357216 5,525 148 100 0
2018-06-20 22:15:41 GMT 33.717133 -117.359222 5,550 150 100 -64
2018-06-20 22:15:37 GMT 33.718857 -117.360306 5,550 150 99 64
2018-06-20 22:15:29 GMT 33.721985 -117.362404 5,525 152 102 64
2018-06-20 22:15:26 GMT 33.723232 -117.363167 5,550 153 101 -192
2018-06-20 22:15:20 GMT 33.725887 -117.364716 5,550 155 98 -320
2018-06-20 22:15:15 GMT 33.727432 -117.365540 5,550 154 97 192
2018-06-20 22:15:09 GMT 33.730354 -117.367287 5,550 151 98 192
2018-06-20 22:15:05 GMT 33.731846 -117.368256 5,550 150 99 128
2018-06-20 22:15:00 GMT 33.734161 -117.369804 5,525 149 99 128
2018-06-20 22:14:56 GMT 33.735756 -117.370949 5,525 148 98 0
2018-06-20 22:14:53 GMT 33.736908 -117.371765 5,525 146 96 128
2018-06-20 22:14:49 GMT 33.738503 -117.373009 5,525 145 96 128
2018-06-20 22:14:46 GMT 33.739243 -117.373611 5,525 145 96 64
2018-06-20 22:14:42 GMT 33.740982 -117.375130 5,500 144 92 128
2018-06-20 22:14:38 GMT 33.742218 -117.376137 5,500 143 91 128
2018-06-20 22:14:35 GMT 33.743156 -117.377014 5,500 143 91 64
2018-06-20 22:14:31 GMT 33.744827 -117.378548 5,500 144 86 384
2018-06-20 22:14:27 GMT 33.745716 -117.379417 5,500 140 85 256
2018-06-20 22:14:24 GMT 33.746613 -117.380287 5,475 140 84 384
2018-06-20 22:14:20 GMT 33.747578 -117.381187 5,450 144 86 384
2018-06-20 22:14:14 GMT 33.749634 -117.383034 5,375 144 86 448
2018-06-20 22:14:09 GMT 33.751236 -117.384377 5,325 156 86 192
2018-06-20 22:14:05 GMT 33.752888 -117.385773 5,350 145 87 320
2018-06-20 22:14:02 GMT 33.753864 -117.386574 5,350 145 87 320
2018-06-20 22:13:59 GMT 33.754749 -117.387314 5,325 156 86 192
2018-06-20 22:13:53 GMT 33.757233 -117.389030 5,300 151 87 64
2018-06-20 22:13:47 GMT 33.758659 -117.389999 5,300 150 86 192
2018-06-20 22:13:43 GMT 33.760117 -117.390991 5,225 154 88 384
2018-06-20 22:13:40 GMT 33.761543 -117.391891 5,225 154 88 384
2018-06-20 22:13:36 GMT 33.762817 -117.392670 5,200 154 88 384
2018-06-20 22:13:33 GMT 33.764053 -117.393341 5,200 155 89 192
2018-06-20 22:13:30 GMT 33.764832 -117.393791 5,200 155 87 128
2018-06-20 22:13:25 GMT 33.766945 -117.394867 5,175 157 86 256
2018-06-20 22:13:22 GMT 33.768265 -117.395477 5,100 161 86 384
2018-06-20 22:13:18 GMT 33.769646 -117.396011 5,125 161 86 448
2018-06-20 22:13:14 GMT 33.770920 -117.396484 5,100 161 87 448
2018-06-20 22:13:10 GMT 33.772476 -117.397102 5,050 158 88 192
2018-06-20 22:13:03 GMT 33.775314 -117.398445 5,050 155 87 192
2018-06-20 22:13:00 GMT 33.776413 -117.399063 5,050 153 87 192
2018-06-20 22:12:55 GMT 33.778473 -117.400238 5,025 154 85 320
2018-06-20 22:12:52 GMT 33.779160 -117.400635 5,000 153 85 320
2018-06-20 22:12:49 GMT 33.780632 -117.401566 4,975 151 86 448
2018-06-20 22:12:46 GMT 33.781700 -117.402245 4,950 151 86 384
2018-06-20 22:12:41 GMT 33.783005 -117.403152 4,950 149 86 256
2018-06-20 22:12:38 GMT 33.784401 -117.404137 4,925 150 85 384
2018-06-20 22:12:33 GMT 33.785751 -117.405052 4,825 148 88 384
2018-06-20 22:12:30 GMT 33.786777 -117.405739 4,900 151 86 448
2018-06-20 22:12:26 GMT 33.788269 -117.406738 4,850 151 86 576
2018-06-20 22:12:23 GMT 33.789368 -117.407471 4,825 150 87 448
2018-06-20 22:12:17 GMT 33.791565 -117.409096 4,800 145 89 384
2018-06-20 22:12:12 GMT 33.793304 -117.410606 4,750 143 90 384
2018-06-20 22:12:07 GMT 33.795155 -117.412262 4,725 144 90 256
2018-06-20 22:11:59 GMT 33.797714 -117.414436 4,700 145 88 256
2018-06-20 22:11:56 GMT 33.799019 -117.415527 4,675 145 88 320
2018-06-20 22:11:50 GMT 33.800556 -117.416725 4,650 145 88 448
2018-06-20 22:11:44 GMT 33.802650 -117.418556 4,600 143 89 448
2018-06-20 22:11:38 GMT 33.804932 -117.420670 4,550 141 89 384
2018-06-20 22:11:35 GMT 33.805908 -117.421646 4,550 139 90 384
2018-06-20 22:11:26 GMT 33.810059 -117.426582 4,475 132 91 320
2018-06-20 22:11:23 GMT 33.809448 -117.425819 4,475 131 91 320
2018-06-20 22:11:14 GMT 33.812008 -117.429314 4,425 130 90 512
2018-06-20 22:11:11 GMT 33.812439 -117.429893 4,400 130 90 512
2018-06-20 22:11:03 GMT 33.815048 -117.433533 4,350 131 92 320
2018-06-20 22:10:59 GMT 33.815826 -117.434540 4,325 130 92 320
2018-06-20 22:10:54 GMT 33.817062 -117.436508 4,300 124 92 384
2018-06-20 22:10:51 GMT 33.818153 -117.438416 4,275 126 91 384
2018-06-20 22:10:41 GMT 33.820759 -117.442642 4,200 127 92 512
2018-06-20 22:10:37 GMT 33.821552 -117.443848 4,200 127 92 448
2018-06-20 22:10:30 GMT 33.823647 -117.446999 4,125 128 92 320
2018-06-20 22:10:26 GMT 33.824524 -117.448334 4,125 128 91 320
2018-06-20 22:10:18 GMT 33.826584 -117.451363 4,025 131 91 448
2018-06-20 22:10:15 GMT 33.827454 -117.452591 4,050 131 91 448
2018-06-20 22:10:10 GMT 33.829285 -117.454948 4,000 131 92 448
2018-06-20 22:10:07 GMT 33.829884 -117.455811 4,000 130 93 384
2018-06-20 22:09:59 GMT 33.832211 -117.459183 3,950 127 92 256
2018-06-20 22:09:56 GMT 33.832718 -117.460045 3,925 127 92 384
2018-06-20 22:09:53 GMT 33.833359 -117.460999 3,925 127 91 448
2018-06-20 22:09:49 GMT 33.834549 -117.462738 3,850 135 91 384
2018-06-20 22:09:45 GMT 33.835705 -117.464218 3,850 135 89 576
2018-06-20 22:09:42 GMT 33.836636 -117.465248 3,850 135 89 576
2018-06-20 22:09:37 GMT 33.838394 -117.467278 3,800 136 89 448
2018-06-20 22:09:34 GMT 33.839310 -117.468285 3,775 135 89 576
2018-06-20 22:09:25 GMT 33.841709 -117.471252 3,700 133 89 512
2018-06-20 22:09:22 GMT 33.842514 -117.472214 3,700 133 89 512
2018-06-20 22:09:15 GMT 33.844593 -117.474915 3,650 132 91 448
2018-06-20 22:09:12 GMT 33.845757 -117.476402 3,600 132 90 384
2018-06-20 22:09:05 GMT 33.847641 -117.478882 3,550 131 90 448
2018-06-20 22:09:02 GMT 33.848366 -117.479897 3,550 130 90 384
2018-06-20 22:08:58 GMT 33.849388 -117.481384 3,500 130 90 384
2018-06-20 22:08:55 GMT 33.850159 -117.482468 3,500 130 90 384
2018-06-20 22:08:52 GMT 33.850891 -117.483536 3,475 129 90 576
2018-06-20 22:08:49 GMT 33.851578 -117.484474 3,475 132 90 320
2018-06-20 22:08:41 GMT 33.854462 -117.487740 3,350 152 90 512
2018-06-20 22:08:38 GMT 33.855148 -117.488243 3,400 152 90 512
2018-06-20 22:08:32 GMT 33.857483 -117.489418 3,350 168 87 448
2018-06-20 22:08:28 GMT 33.859131 -117.489700 3,325 174 87 320
2018-06-20 22:08:22 GMT 33.862003 -117.489967 3,275 182 85 448
2018-06-20 22:08:17 GMT 33.863914 -117.489799 3,250 197 82 512
2018-06-20 22:08:11 GMT 33.865868 -117.489281 3,225 197 82 512
2018-06-20 22:08:06 GMT 33.867916 -117.488480 3,175 201 83 512
2018-06-20 22:08:00 GMT 33.869873 -117.487564 3,125 202 83 512
2018-06-20 22:07:56 GMT 33.871174 -117.486992 3,100 199 84 384
2018-06-20 22:07:53 GMT 33.872635 -117.486389 3,100 199 84 384
2018-06-20 22:07:50 GMT 33.873779 -117.486000 3,075 195 84 576
2018-06-20 22:07:43 GMT 33.876297 -117.485275 3,000 193 85 512
2018-06-20 22:07:39 GMT 33.878174 -117.484825 2,975 192 86 320
2018-06-20 22:07:34 GMT 33.879929 -117.484360 2,950 192 84 320
2018-06-20 22:07:28 GMT 33.882160 -117.483849 2,925 192 83 256
2018-06-20 22:07:24 GMT 33.883606 -117.483559 2,900 189 81 384
2018-06-20 22:07:17 GMT 33.886276 -117.483086 2,775 190 84 512
2018-06-20 22:07:13 GMT 33.887653 -117.482819 2,825 190 83 576
2018-06-20 22:07:05 GMT 33.890633 -117.482246 2,775 190 84 448
2018-06-20 22:07:02 GMT 33.891796 -117.482018 2,750 191 83 320
2018-06-20 22:06:52 GMT 33.895477 -117.481232 2,675 190 81 512
2018-06-20 22:06:49 GMT 33.897011 -117.480865 2,650 191 80 512
2018-06-20 22:06:41 GMT 33.899899 -117.480240 2,575 192 81 576
2018-06-20 22:06:33 GMT 33.903015 -117.479439 2,500 192 81 576
2018-06-20 22:06:30 GMT 33.903534 -117.479332 2,500 193 82 640
2018-06-20 22:06:23 GMT 33.906418 -117.478546 2,400 193 83 704
2018-06-20 22:06:20 GMT 33.907394 -117.478294 2,375 194 84 384
2018-06-20 22:06:15 GMT 33.909348 -117.477760 2,350 194 83 448
2018-06-20 22:06:10 GMT 33.910950 -117.477310 2,325 192 82 384
2018-06-20 22:06:06 GMT 33.912506 -117.476974 2,300 192 82 384
2018-06-20 22:05:59 GMT 33.915447 -117.476295 2,225 191 84 704
2018-06-20 22:05:50 GMT 33.918938 -117.475601 2,100 192 87 768
2018-06-20 22:05:45 GMT 33.920837 -117.475235 2,100 192 87 768
2018-06-20 22:05:40 GMT 33.922894 -117.474747 2,025 199 81 320
2018-06-20 22:05:37 GMT 33.924500 -117.474342 2,025 199 81 320
2018-06-20 22:05:34 GMT 33.925129 -117.474236 2,000 189 86 256
2018-06-20 22:05:30 GMT 33.927017 -117.473778 2,000 199 84 192
2018-06-20 22:05:24 GMT 33.929039 -117.472916 1,950 199 80 448
2018-06-20 22:05:12 GMT 33.933136 -117.471199 1,900 198 80 576
2018-06-20 22:05:03 GMT 33.936218 -117.470024 1,825 198 80 448
2018-06-20 22:04:59 GMT 33.938164 -117.469315 1,775 197 79 896
2018-06-20 22:04:54 GMT 33.939560 -117.468796 1,700 197 79 832
2018-06-20 22:04:50 GMT 33.941345 -117.468117 1,625 198 77 896
2018-06-20 22:04:46 GMT 33.942589 -117.467712 1,600 195 77 512
2018-06-20 22:04:40 GMT 33.944458 -117.467163 1,550 197 79 768
2018-06-20 22:04:34 GMT 33.946682 -117.466331 1,500 197 82 384
2018-06-20 22:04:30 GMT 33.948166 -117.465767 1,475 200 80 512
2018-06-20 22:04:25 GMT 33.949802 -117.465019 1,425 203 83 704
2018-06-20 22:04:17 GMT 33.952549 -117.463188 1,375 213 80 448
2018-06-20 22:04:12 GMT 33.953842 -117.461281 1,300 251 70 896
2018-06-20 22:04:08 GMT 33.954117 -117.460327 1,250 256 69 960
2018-06-20 22:04:03 GMT 33.954319 -117.458321 1,200 276 69 384
We lost coverage of the aircraft here for a total of 144 minutes
2018-06-20 19:39:39 GMT 33.948315 -117.422729 1,000 283 65 -256
2018-06-20 19:39:27 GMT 33.947475 -117.418388 1,075 284 68 -384
2018-06-20 19:39:19 GMT 33.946930 -117.415543 1,150 283 75 -640
2018-06-20 19:39:14 GMT 33.946472 -117.412910 1,150 283 75 -640
2018-06-20 19:39:07 GMT 33.946079 -117.410606 1,200 281 75 -448
2018-06-20 19:38:57 GMT 33.945240 -117.406197 1,275 287 68 -640
2018-06-20 19:38:46 GMT 33.944412 -117.402199 1,325 292 75 -512
2018-06-20 19:38:34 GMT 33.941887 -117.399040 1,400 344 74 -320
2018-06-20 19:38:23 GMT 33.938095 -117.398949 1,450 7 77 -512
2018-06-20 19:38:13 GMT 33.934387 -117.401077 1,600 53 78 -960
2018-06-20 19:38:01 GMT 33.933510 -117.406258 1,650 90 91 -320
2018-06-20 19:37:54 GMT 33.933647 -117.410202 1,700 93 96 -192
2018-06-20 19:37:51 GMT 33.933743 -117.411751 1,700 95 96 -128
2018-06-20 19:37:43 GMT 33.934067 -117.416161 1,725 94 96 -128
2018-06-20 19:37:40 GMT 33.934162 -117.417526 1,725 94 95 -256
2018-06-20 19:37:31 GMT 33.934345 -117.422279 1,750 92 94 -128
2018-06-20 19:37:20 GMT 33.934616 -117.428268 1,750 94 96 64
2018-06-20 19:37:17 GMT 33.934719 -117.429604 1,750 99 95 256
2018-06-20 19:37:09 GMT 33.935257 -117.433197 1,725 102 95 128
2018-06-20 19:36:58 GMT 33.936302 -117.438988 1,725 103 95 0
2018-06-20 19:36:47 GMT 33.937683 -117.444916 1,700 106 100 64
2018-06-20 19:36:41 GMT 33.938599 -117.448273 1,700 108 102 -64
2018-06-20 19:36:38 GMT 33.939095 -117.450142 1,700 107 99 -128
2018-06-20 19:36:30 GMT 33.940063 -117.453880 1,700 106 96 -192
2018-06-20 19:36:25 GMT 33.940819 -117.456947 1,725 106 96 -64
2018-06-20 19:36:21 GMT 33.941189 -117.458672 1,725 105 97 128
2018-06-20 19:36:18 GMT 33.941666 -117.460609 1,700 103 99 -128
2018-06-20 19:36:15 GMT 33.942074 -117.462212 1,675 107 98 704
2018-06-20 19:36:10 GMT 33.942635 -117.464394 1,700 103 99 -128
2018-06-20 19:36:05 GMT 33.943333 -117.467537 1,700 103 100 -64
2018-06-20 19:36:00 GMT 33.943748 -117.469711 1,675 104 98 -320
2018-06-20 19:35:54 GMT 33.944496 -117.472977 1,700 105 97 -192
2018-06-20 19:35:51 GMT 33.944916 -117.474686 1,700 105 98 192
2018-06-20 19:35:41 GMT 33.946499 -117.480011 1,725 119 102 -640
2018-06-20 19:35:38 GMT 33.947205 -117.480957 1,725 146 98 0
2018-06-20 19:35:31 GMT 33.950546 -117.482124 1,725 182 92 -192
2018-06-20 19:35:26 GMT 33.952011 -117.481911 1,750 188 88 -448
2018-06-20 19:35:21 GMT 33.954132 -117.480530 1,775 233 82 448
2018-06-20 19:35:17 GMT 33.954849 -117.479103 1,750 251 82 128
2018-06-20 19:35:10 GMT 33.955437 -117.475716 1,725 264 77 448
2018-06-20 19:35:07 GMT 33.955482 -117.472572 1,675 273 75 960
2018-06-20 19:34:56 GMT 33.955341 -117.470284 1,600 275 75 896
2018-06-20 19:34:51 GMT 33.955124 -117.468002 1,550 277 74 448
2018-06-20 19:34:45 GMT 33.954922 -117.465996 1,525 277 74 384
2018-06-20 19:34:40 GMT 33.954712 -117.463356 1,475 277 73 384
2018-06-20 19:34:37 GMT 33.954666 -117.462456 1,425 278 73 448
2018-06-20 19:34:33 GMT 33.954437 -117.460548 1,425 278 73 448
2018-06-20 19:34:29 GMT 33.954300 -117.458984 1,400 279 80 704
2018-06-20 19:34:26 GMT 33.954224 -117.458038 1,300 278 80 768
2018-06-20 19:34:22 GMT 33.953979 -117.456070 1,300 278 80 768
2018-06-20 19:34:17 GMT 33.953659 -117.453659 1,250 278 82 704
2018-06-20 19:34:13 GMT 33.953526 -117.452316 1,200 277 83 448
2018-06-20 19:34:04 GMT 33.952972 -117.447662 1,100 280 83 576
2018-06-20 19:33:56 GMT 33.952457 -117.444077 1,100 281 75 -256
2018-06-20 19:33:52 GMT 33.952194 -117.442726 1,125 285 68 -448
2018-06-20 19:33:43 GMT 33.951508 -117.439423 1,075 278 72 0
2018-06-20 19:33:33 GMT 33.950874 -117.435890 975 278 72 0
2018-06-20 19:33:29 GMT 33.950638 -117.434822 975 278 72 0
2018-06-20 19:33:22 GMT 33.949951 -117.432358 900 282 63 448
2018-06-20 19:33:19 GMT 33.949894 -117.431435 900 272 63 64
2018-06-20 19:32:53 GMT 33.948639 -117.421761 1,000 277 72 0
2018-06-20 19:32:48 GMT 33.948761 -117.419800 1,125 256 71 -768
2018-06-20 19:32:39 GMT 33.950226 -117.416939 1,125 256 71 -768
2018-06-20 19:32:36 GMT 33.951805 -117.415695 1,200 195 88 -1152
2018-06-20 19:32:29 GMT 33.953808 -117.415070 1,275 195 88 -1152
2018-06-20 19:32:26 GMT 33.955444 -117.414757 1,375 176 90 -576
2018-06-20 19:32:23 GMT 33.956268 -117.414642 1,375 176 90 -576
2018-06-20 19:32:15 GMT 33.959949 -117.414841 1,475 177 90 -896
2018-06-20 19:32:07 GMT 33.963455 -117.415146 1,600 173 94 -384
2018-06-20 19:32:04 GMT 33.964512 -117.415298 1,600 172 96 -640
2018-06-20 19:31:56 GMT 33.968189 -117.416901 1,700 147 101 64
2018-06-20 19:31:53 GMT 33.969360 -117.418060 1,675 130 102 64
2018-06-20 19:31:43 GMT 33.970703 -117.423019 1,575 97 103 768
2018-06-20 19:31:32 GMT 33.971123 -117.429428 1,550 93 99 512
2018-06-20 19:31:21 GMT 33.971310 -117.435493 1,450 90 103 576
2018-06-20 19:31:10 GMT 33.971558 -117.442169 1,375 88 110 64
2018-06-20 19:30:59 GMT 33.969681 -117.447662 1,325 30 98 448
2018-06-20 19:30:50 GMT 33.965675 -117.448883 1,275 2 91 320
2018-06-20 19:30:45 GMT 33.963955 -117.448936 1,250 2 90 256
2018-06-20 19:30:38 GMT 33.961304 -117.449120 1,175 2 89 576
2018-06-20 19:30:35 GMT 33.959625 -117.449226 1,175 2 89 576
2018-06-20 19:30:26 GMT 33.955719 -117.449059 1,125 330 87 448
2018-06-20 19:30:14 GMT 33.952698 -117.445923 1,050 283 85 192
2018-06-20 19:30:05 GMT 33.951874 -117.441666 1,000 285 82 448
2018-06-20 19:29:56 GMT 33.951153 -117.437721 1,000 285 82 448
2018-06-20 19:29:53 GMT 33.950821 -117.436058 1,000 284 67 448
2018-06-20 19:29:44 GMT 33.950268 -117.432976 950 283 61 192
2018-06-20 19:29:08 GMT 33.948029 -117.421310 1,000 284 59 0
2018-06-20 19:28:52 GMT 33.945984 -117.416100 1,175 312 66 -1024
2018-06-20 19:28:44 GMT 33.944588 -117.414040 1,275 322 65 -1024
2018-06-20 19:28:39 GMT 33.942867 -117.413292 1,350 358 72 -512
2018-06-20 19:28:30 GMT 33.939838 -117.413635 1,575 8 78 -640
2018-06-20 19:28:27 GMT 33.938690 -117.413803 1,525 9 72 -576
2018-06-20 19:28:22 GMT 33.937042 -117.414139 1,575 8 78 -640
2018-06-20 19:28:15 GMT 33.934441 -117.414497 1,600 3 86 -512
2018-06-20 19:28:06 GMT 33.930809 -117.414665 1,850 1 88 -448
2018-06-20 19:27:58 GMT 33.927456 -117.415123 1,825 13 92 -1344
2018-06-20 19:27:54 GMT 33.926014 -117.415527 1,850 12 91 -704
2018-06-20 19:27:50 GMT 33.924088 -117.415932 1,900 6 90 -256
2018-06-20 19:27:44 GMT 33.921825 -117.416039 1,950 0 94 -384
2018-06-20 19:27:40 GMT 33.919693 -117.416046 1,950 0 94 -320
2018-06-20 19:27:32 GMT 33.916752 -117.415977 1,975 0 93 -448
2018-06-20 19:27:21 GMT 33.911816 -117.416267 2,025 0 93 -192
2018-06-20 19:27:12 GMT 33.907673 -117.416267 2,050 357 96 -256
2018-06-20 19:27:08 GMT 33.905731 -117.416100 2,050 357 96 -256
2018-06-20 19:26:59 GMT 33.902206 -117.415993 2,100 1 89 0
2018-06-20 19:26:50 GMT 33.898407 -117.416550 2,100 9 93 256
2018-06-20 19:26:44 GMT 33.895706 -117.417000 2,100 9 93 256
2018-06-20 19:26:38 GMT 33.892960 -117.417618 2,175 7 89 0
2018-06-20 19:26:35 GMT 33.891769 -117.417839 2,175 7 89 0
2018-06-20 19:26:27 GMT 33.888634 -117.418266 2,200 11 90 -64
2018-06-20 19:26:20 GMT 33.885727 -117.418961 2,225 6 92 -384
2018-06-20 19:26:14 GMT 33.883556 -117.419357 2,250 6 92 -384
2018-06-20 19:26:05 GMT 33.879410 -117.419968 2,300 6 91 -64
2018-06-20 19:25:57 GMT 33.875690 -117.420731 2,300 11 93 -256
2018-06-20 19:25:54 GMT 33.874695 -117.420975 2,325 17 93 -448
2018-06-20 19:25:45 GMT 33.871674 -117.423279 2,375 38 93 -448
2018-06-20 19:25:41 GMT 33.870384 -117.424507 2,400 37 93 -384
2018-06-20 19:25:36 GMT 33.868378 -117.426025 2,425 30 94 -64
2018-06-20 19:25:33 GMT 33.867264 -117.426849 2,425 27 93 -64
2018-06-20 19:25:30 GMT 33.866287 -117.427422 2,425 24 93 -256
2018-06-20 19:25:21 GMT 33.861603 -117.429443 2,475 25 91 -320
2018-06-20 19:25:14 GMT 33.859818 -117.430565 2,500 28 92 0
2018-06-20 19:25:10 GMT 33.857849 -117.431908 2,500 29 93 -384
2018-06-20 19:25:07 GMT 33.857304 -117.432289 2,525 31 92 -448
2018-06-20 19:25:01 GMT 33.854874 -117.434372 2,550 41 89 128
2018-06-20 19:24:50 GMT 33.851807 -117.438354 2,600 51 89 -256
2018-06-20 19:24:37 GMT 33.849297 -117.443443 2,550 73 91 -64
2018-06-20 19:24:27 GMT 33.848553 -117.448196 2,550 147 95 -192
2018-06-20 19:24:16 GMT 33.848740 -117.453880 2,550 111 94 -64
2018-06-20 19:24:12 GMT 33.849667 -117.456322 2,525 113 91 0
2018-06-20 19:24:06 GMT 33.850834 -117.458725 2,475 147 95 -192
2018-06-20 19:24:03 GMT 33.851856 -117.459930 2,475 147 95 -192
2018-06-20 19:23:53 GMT 33.856018 -117.460945 2,550 230 98 -448
2018-06-20 19:23:49 GMT 33.858189 -117.458321 2,600 243 99 -512
2018-06-20 19:23:43 GMT 33.858604 -117.457008 2,625 255 99 -704
2018-06-20 19:23:33 GMT 33.859406 -117.451134 2,750 272 100 -768
2018-06-20 19:23:20 GMT 33.858444 -117.444519 3,000 281 93 -768
2018-06-20 19:23:15 GMT 33.858032 -117.441940 3,000 281 93 -768
2018-06-20 19:23:11 GMT 33.857674 -117.439674 3,050 282 92 -832
2018-06-20 19:23:04 GMT 33.857025 -117.436638 3,125 289 90 -896
2018-06-20 19:23:00 GMT 33.856247 -117.434372 3,175 299 90 -576
2018-06-20 19:22:47 GMT 33.853088 -117.428993 3,275 310 96 -640
2018-06-20 19:22:38 GMT 33.850552 -117.425079 3,400 305 96 -768
2018-06-20 19:22:26 GMT 33.848053 -117.420364 3,500 306 91 -384
2018-06-20 19:22:15 GMT 33.845341 -117.415642 3,550 308 89 -64
2018-06-20 19:22:04 GMT 33.842468 -117.411278 3,550 309 86 -256
2018-06-20 19:21:54 GMT 33.839813 -117.407639 3,600 314 68 128
2018-06-20 19:21:41 GMT 33.837112 -117.404327 3,575 324 55 -192
2018-06-20 19:21:31 GMT 33.835052 -117.402313 3,600 78 92 -448
2018-06-20 19:21:28 GMT 33.834549 -117.402031 3,600 78 92 -448
2018-06-20 19:21:21 GMT 33.832626 -117.401863 3,600 16 56 -64
2018-06-20 19:21:18 GMT 33.832123 -117.402031 3,600 16 56 -64
2018-06-20 19:21:09 GMT 33.830154 -117.403770 3,625 78 92 -448
2018-06-20 19:20:59 GMT 33.829231 -117.407455 3,600 89 65 -128
2018-06-20 19:20:49 GMT 33.829372 -117.410950 3,675 78 92 -448
2018-06-20 19:20:46 GMT 33.829422 -117.412064 3,675 78 92 -448
2018-06-20 19:20:37 GMT 33.829330 -117.415543 3,675 85 85 256
2018-06-20 19:20:26 GMT 33.828644 -117.421143 3,750 77 91 -384
2018-06-20 19:20:15 GMT 33.827927 -117.426567 3,750 91 87 -512
2018-06-20 19:20:03 GMT 33.830109 -117.430733 3,725 149 89 896
2018-06-20 19:19:53 GMT 33.834229 -117.430504 3,750 244 93 -256
2018-06-20 19:19:50 GMT 33.835007 -117.429276 3,750 244 93 -256
2018-06-20 19:19:42 GMT 33.834911 -117.424911 3,750 281 91 0
2018-06-20 19:19:37 GMT 33.834641 -117.423050 3,750 281 91 0
2018-06-20 19:19:31 GMT 33.834274 -117.419579 3,700 259 97 -256
2018-06-20 19:19:20 GMT 33.835236 -117.413414 3,700 238 96 384
2018-06-20 19:19:08 GMT 33.840042 -117.412010 3,650 126 93 192
2018-06-20 19:19:04 GMT 33.841335 -117.413177 3,650 135 98 576
2018-06-20 19:18:58 GMT 33.843292 -117.415871 3,600 128 100 256
2018-06-20 19:18:55 GMT 33.843990 -117.416954 3,600 128 99 -64
2018-06-20 19:18:46 GMT 33.846317 -117.420563 3,550 127 93 448
2018-06-20 19:18:42 GMT 33.847321 -117.422096 3,550 128 93 768
2018-06-20 19:18:37 GMT 33.849064 -117.424561 3,550 129 90 -128
2018-06-20 19:18:25 GMT 33.852043 -117.429085 3,500 127 85 -64
2018-06-20 19:18:13 GMT 33.854691 -117.433365 3,525 126 74 -64
2018-06-20 19:18:05 GMT 33.856201 -117.436111 3,525 121 67 128
2018-06-20 19:18:02 GMT 33.856606 -117.436867 3,500 118 66 256
2018-06-20 19:17:52 GMT 33.858093 -117.440475 3,500 110 65 -128
2018-06-20 19:17:41 GMT 33.857803 -117.444069 3,450 60 63 256
2018-06-20 19:17:32 GMT 33.856201 -117.446144 3,450 26 58 64
2018-06-20 19:17:28 GMT 33.855442 -117.446533 3,425 18 56 128
2018-06-20 19:17:24 GMT 33.854462 -117.446770 3,425 2 57 320
2018-06-20 19:17:21 GMT 33.853409 -117.446762 3,400 352 57 192
2018-06-20 19:17:17 GMT 33.852585 -117.446480 3,400 322 53 0
2018-06-20 19:17:09 GMT 33.850925 -117.444992 3,400 287 57 128
2018-06-20 19:17:01 GMT 33.849930 -117.443115 3,350 302 55 192
2018-06-20 19:16:58 GMT 33.849472 -117.442169 3,350 301 55 192
2018-06-20 19:16:54 GMT 33.848969 -117.440872 3,325 290 57 192
2018-06-20 19:16:48 GMT 33.848694 -117.438858 3,325 272 57 -64
2018-06-20 19:16:42 GMT 33.848923 -117.437157 3,350 255 55 192
2018-06-20 19:16:38 GMT 33.849251 -117.436005 3,325 251 55 128
2018-06-20 19:16:32 GMT 33.849667 -117.434235 3,300 258 55 256
2018-06-20 19:16:26 GMT 33.849976 -117.432747 3,300 259 55 128
2018-06-20 19:16:18 GMT 33.850368 -117.429832 3,275 261 54 128
2018-06-20 19:16:15 GMT 33.850433 -117.429558 3,275 263 55 128
2018-06-20 19:16:08 GMT 33.850754 -117.426979 3,275 261 54 64
2018-06-20 19:16:05 GMT 33.850834 -117.426048 3,275 263 55 0
2018-06-20 19:15:58 GMT 33.851017 -117.423309 3,275 269 55 -64
2018-06-20 19:15:55 GMT 33.851028 -117.422882 3,275 272 54 -64
2018-06-20 19:15:52 GMT 33.851028 -117.422264 3,275 272 54 -64
2018-06-20 19:15:42 GMT 33.850296 -117.419632 3,250 304 54 192
2018-06-20 19:15:33 GMT 33.848270 -117.417755 3,275 351 54 -128
2018-06-20 19:15:29 GMT 33.847549 -117.417618 3,275 351 54 -128
2018-06-20 19:15:20 GMT 33.845215 -117.418060 3,275 37 63 -64
2018-06-20 19:15:14 GMT 33.843430 -117.419472 3,275 41 63 -64
2018-06-20 19:15:10 GMT 33.842972 -117.420029 3,300 60 64 -128
2018-06-20 19:15:03 GMT 33.842033 -117.422501 3,300 57 64 -128
2018-06-20 19:14:59 GMT 33.841892 -117.424049 3,300 96 67 -64
2018-06-20 19:14:49 GMT 33.842220 -117.427650 3,300 96 67 64
2018-06-20 19:14:46 GMT 33.842361 -117.429199 3,300 96 67 64
2018-06-20 19:14:37 GMT 33.842743 -117.432472 3,300 99 67 -128
2018-06-20 19:14:26 GMT 33.843338 -117.436165 3,325 102 67 -192
2018-06-20 19:14:22 GMT 33.843712 -117.438065 3,325 103 66 -384
2018-06-20 19:14:16 GMT 33.844116 -117.439980 3,350 104 65 -640
2018-06-20 19:14:11 GMT 33.844528 -117.441887 3,400 101 68 -192
2018-06-20 19:14:03 GMT 33.844921 -117.444473 3,400 100 75 128
2018-06-20 19:13:59 GMT 33.845352 -117.446877 3,400 101 90 -128
2018-06-20 19:13:53 GMT 33.845764 -117.449455 3,450 96 95 -320
2018-06-20 19:13:47 GMT 33.846039 -117.452759 3,450 94 97 0
2018-06-20 19:13:44 GMT 33.846176 -117.454887 3,450 93 98 0
2018-06-20 19:13:41 GMT 33.846222 -117.455635 3,450 93 98 0
2018-06-20 19:13:36 GMT 33.846359 -117.458702 3,450 91 97 0
2018-06-20 19:13:32 GMT 33.846451 -117.461113 3,450 91 97 0
2018-06-20 19:13:24 GMT 33.846504 -117.464905 3,450 90 98 0
2018-06-20 19:13:20 GMT 33.846504 -117.467819 3,450 88 98 -192
2018-06-20 19:13:13 GMT 33.846272 -117.471024 3,500 80 93 -384
2018-06-20 19:13:09 GMT 33.845901 -117.472885 3,500 64 89 -128
2018-06-20 19:13:02 GMT 33.843758 -117.475601 3,475 23 91 576
2018-06-20 19:12:58 GMT 33.842266 -117.475891 3,450 346 97 320
2018-06-20 19:12:48 GMT 33.839172 -117.472885 3,525 265 97 -640
2018-06-20 19:12:45 GMT 33.839218 -117.470924 3,525 265 97 -640
2018-06-20 19:12:38 GMT 33.842033 -117.467651 3,550 205 97 -192
2018-06-20 19:12:35 GMT 33.842266 -117.467537 3,550 200 96 -128
2018-06-20 19:12:28 GMT 33.845627 -117.466377 3,575 197 95 64
2018-06-20 19:12:25 GMT 33.846359 -117.466156 3,575 197 96 128
2018-06-20 19:12:14 GMT 33.851944 -117.464363 3,500 191 95 320
2018-06-20 19:12:05 GMT 33.855698 -117.463745 3,475 186 92 64
2018-06-20 19:12:02 GMT 33.858467 -117.463417 3,475 186 86 576
2018-06-20 19:11:55 GMT 33.859497 -117.463356 3,450 186 87 512
2018-06-20 19:11:52 GMT 33.860367 -117.463242 3,425 186 87 448
2018-06-20 19:11:47 GMT 33.864761 -117.462852 3,350 184 86 512
2018-06-20 19:11:43 GMT 33.864517 -117.462845 3,350 184 86 512
2018-06-20 19:11:32 GMT 33.868973 -117.462456 3,250 184 87 512
2018-06-20 19:11:21 GMT 33.873413 -117.462288 3,175 181 87 448
2018-06-20 19:11:14 GMT 33.875786 -117.462212 3,100 182 86 576
2018-06-20 19:11:10 GMT 33.877991 -117.462120 3,075 182 88 384
2018-06-20 19:11:03 GMT 33.880718 -117.462044 3,050 182 87 320
2018-06-20 19:10:59 GMT 33.882202 -117.462006 3,025 182 84 448
2018-06-20 19:10:53 GMT 33.884857 -117.461899 2,975 182 84 320
2018-06-20 19:10:48 GMT 33.886257 -117.461929 2,925 178 81 384
2018-06-20 19:10:44 GMT 33.887936 -117.461929 2,925 178 81 384
2018-06-20 19:10:34 GMT 33.891750 -117.462044 2,800 182 81 704
2018-06-20 19:10:30 GMT 33.893429 -117.462158 2,800 184 81 704
2018-06-20 19:10:23 GMT 33.895889 -117.462120 2,750 184 81 704
2018-06-20 19:10:17 GMT 33.897991 -117.461815 2,700 188 80 384
2018-06-20 19:10:13 GMT 33.899597 -117.461617 2,650 186 80 768
2018-06-20 19:10:02 GMT 33.903622 -117.461243 2,550 184 86 384
2018-06-20 19:09:53 GMT 33.907700 -117.461113 2,475 180 84 192
2018-06-20 19:09:42 GMT 33.911819 -117.460999 2,375 182 85 768
2018-06-20 19:09:33 GMT 33.915573 -117.460831 2,300 182 87 320
2018-06-20 19:09:22 GMT 33.920609 -117.460831 2,175 172 87 576
2018-06-20 19:09:10 GMT 33.924709 -117.461868 2,150 165 81 192
2018-06-20 19:08:58 GMT 33.928665 -117.462906 2,050 171 77 1152
2018-06-20 19:08:50 GMT 33.931641 -117.463409 1,900 173 85 896
2018-06-20 19:08:44 GMT 33.933929 -117.463692 1,850 174 86 576
2018-06-20 19:08:35 GMT 33.937363 -117.464142 1,800 173 82 384
2018-06-20 19:08:26 GMT 33.941006 -117.464561 1,700 176 84 576
2018-06-20 19:08:18 GMT 33.944275 -117.464699 1,700 177 79 320
2018-06-20 19:08:15 GMT 33.945148 -117.464729 1,675 177 78 704
2018-06-20 19:08:07 GMT 33.948360 -117.465073 1,550 173 82 1216
2018-06-20 19:08:04 GMT 33.949448 -117.465263 1,500 174 82 1216
2018-06-20 19:07:56 GMT 33.952316 -117.465530 1,400 196 77 512
2018-06-20 19:07:53 GMT 33.953476 -117.465096 1,350 217 75 512
2018-06-20 19:07:50 GMT 33.954086 -117.464500 1,325 231 76 704
2018-06-20 19:07:45 GMT 33.954758 -117.462120 1,275 270 78 768
We lost coverage of the aircraft here for a total of 77 minutes
2018-06-20 17:50:35 GMT 33.950638 -117.435272 775 283 63 -576
2018-06-20 17:50:30 GMT 33.950268 -117.433205 825 283 63 -448
2018-06-20 17:50:11 GMT 33.948990 -117.426529 950 284 64 -768
2018-06-20 17:50:02 GMT 33.948544 -117.423363 1,050 275 68 -320
2018-06-20 17:49:51 GMT 33.948761 -117.419128 1,150 257 72 -768
2018-06-20 17:49:44 GMT 33.950035 -117.416550 1,225 228 70 -64
2018-06-20 17:49:40 GMT 33.950729 -117.415710 1,250 222 70 -320
2018-06-20 17:49:34 GMT 33.952560 -117.414536 1,300 188 76 -640
2018-06-20 17:49:30 GMT 33.954025 -117.414139 1,350 186 77 -640
2018-06-20 17:49:23 GMT 33.956459 -117.413918 1,375 178 85 192
2018-06-20 17:49:18 GMT 33.958191 -117.414085 1,400 171 88 -640
2018-06-20 17:49:11 GMT 33.961349 -117.414978 1,425 161 90 64
2018-06-20 17:49:07 GMT 33.962585 -117.415482 1,425 160 89 256
2018-06-20 17:49:02 GMT 33.965149 -117.416664 1,400 156 91 0
2018-06-20 17:48:57 GMT 33.967117 -117.417671 1,425 156 89 -256
2018-06-20 17:48:51 GMT 33.969307 -117.418839 1,400 155 87 512
2018-06-20 17:48:48 GMT 33.970413 -117.419411 1,375 155 88 576
2018-06-20 17:48:43 GMT 33.971867 -117.420273 1,350 153 87 384
2018-06-20 17:48:39 GMT 33.973755 -117.421425 1,350 154 85 -64
2018-06-20 17:48:34 GMT 33.975311 -117.422264 1,350 159 82 384
We lost coverage of the aircraft here for a total of 5 minutes
2018-06-20 17:43:33 GMT 33.987350 -117.395081 1,125 1 78 -256
2018-06-20 17:43:28 GMT 33.985565 -117.395363 1,175 10 80 -384
2018-06-20 17:43:17 GMT 33.982681 -117.398277 1,250 75 81 -384
2018-06-20 17:43:06 GMT 33.981628 -117.403603 1,300 79 90 -448
2018-06-20 17:42:59 GMT 33.981087 -117.407227 1,350 81 90 -320
2018-06-20 17:42:54 GMT 33.980896 -117.409042 1,350 86 84 -512
2018-06-20 17:42:48 GMT 33.980804 -117.412209 1,400 154 85 0
2018-06-20 17:42:43 GMT 33.981445 -117.414192 1,400 126 85 -256
2018-06-20 17:42:37 GMT 33.983597 -117.415878 1,400 163 85 -256
2018-06-20 17:42:26 GMT 33.987648 -117.416954 1,375 180 83 704
2018-06-20 17:42:21 GMT 33.989605 -117.416435 1,325 206 80 576
2018-06-20 17:42:15 GMT 33.991333 -117.415039 1,300 226 81 512
2018-06-20 17:42:08 GMT 33.992661 -117.412964 1,250 243 82 320
2018-06-20 17:42:04 GMT 33.993423 -117.410713 1,250 253 81 -64
2018-06-20 17:41:58 GMT 33.994263 -117.407921 1,300 248 80 -128
2018-06-20 17:41:52 GMT 33.994911 -117.405792 1,275 256 81 -320
2018-06-20 17:41:47 GMT 33.995331 -117.403336 1,300 260 80 0
2018-06-20 17:41:43 GMT 33.995609 -117.401619 1,300 259 80 -64
2018-06-20 17:41:38 GMT 33.995956 -117.399452 1,300 259 80 -64
2018-06-20 17:41:35 GMT 33.996216 -117.398071 1,250 258 81 -192
2018-06-20 17:41:28 GMT 33.996727 -117.395439 1,300 259 83 -768
2018-06-20 17:41:24 GMT 33.997147 -117.393120 1,350 254 85 -256
2018-06-20 17:41:12 GMT 33.998447 -117.387772 1,375 256 94 -320
2018-06-20 17:41:08 GMT 33.999008 -117.385773 1,400 248 96 -256
2018-06-20 17:41:01 GMT 34.000397 -117.382416 1,500 239 93 -896
2018-06-20 17:40:54 GMT 34.002274 -117.379219 1,575 230 95 -128
2018-06-20 17:40:50 GMT 34.003281 -117.377815 1,550 228 96 -256
2018-06-20 17:40:44 GMT 34.005341 -117.374954 1,600 233 93 -256
2018-06-20 17:40:38 GMT 34.006504 -117.373177 1,650 232 93 -512
2018-06-20 17:40:26 GMT 34.010101 -117.368904 1,725 223 90 -384
2018-06-20 17:40:17 GMT 34.013123 -117.365204 1,800 221 90 -704
2018-06-20 17:40:08 GMT 34.015629 -117.362762 1,875 218 84 -448
2018-06-20 17:40:05 GMT 34.016556 -117.361839 1,875 220 83 -64
2018-06-20 17:39:57 GMT 34.019073 -117.359428 1,850 217 87 448
2018-06-20 17:39:53 GMT 34.020424 -117.358246 1,825 218 92 512
2018-06-20 17:39:42 GMT 34.023972 -117.353264 1,875 242 93 -704
2018-06-20 17:39:35 GMT 34.024796 -117.350800 1,950 254 86 -256
2018-06-20 17:39:31 GMT 34.025070 -117.348953 1,900 267 88 576
2018-06-20 17:39:28 GMT 34.025169 -117.347198 1,900 265 88 64
2018-06-20 17:39:20 GMT 34.025635 -117.343536 1,925 256 85 -320
2018-06-20 17:39:14 GMT 34.026333 -117.340446 1,925 257 87 256
2018-06-20 17:39:09 GMT 34.026764 -117.338524 1,925 252 90 -128
2018-06-20 17:38:59 GMT 34.028103 -117.333183 1,950 254 90 128
2018-06-20 17:38:56 GMT 34.028549 -117.331406 1,925 250 93 -192
2018-06-20 17:38:42 GMT 34.030663 -117.324883 1,975 252 92 -64
2018-06-20 17:38:37 GMT 34.031525 -117.322327 1,975 247 95 -192
2018-06-20 17:38:34 GMT 34.032108 -117.320709 2,000 239 97 64
2018-06-20 17:38:25 GMT 34.033875 -117.316650 2,025 237 98 0
2018-06-20 17:38:20 GMT 34.035233 -117.314255 2,050 237 98 -64
2018-06-20 17:38:12 GMT 34.037506 -117.310806 2,050 228 96 -256
2018-06-20 17:38:04 GMT 34.039974 -117.307777 2,075 226 96 192
2018-06-20 17:38:00 GMT 34.040955 -117.306572 2,050 225 98 256
2018-06-20 17:37:53 GMT 34.043510 -117.303490 2,050 227 99 -256
2018-06-20 17:37:41 GMT 34.047096 -117.299255 2,100 223 99 64
2018-06-20 17:37:38 GMT 34.048073 -117.298164 2,075 226 100 64
2018-06-20 17:37:30 GMT 34.050659 -117.294861 2,075 228 103 64
2018-06-20 17:37:27 GMT 34.051800 -117.293411 2,050 227 104 64
2018-06-20 17:37:20 GMT 34.054321 -117.289986 2,100 231 101 -192
2018-06-20 17:37:13 GMT 34.056267 -117.287407 2,100 226 103 128
2018-06-20 17:37:08 GMT 34.057892 -117.285332 2,100 225 103 -192
We lost coverage of the aircraft here for a total of 29 minutes
2018-06-20 17:08:38 GMT 34.082943 -117.278824 1,600 74 78 -832
2018-06-20 17:08:35 GMT 34.082703 -117.279892 1,650 74 78 -832
2018-06-20 17:08:07 GMT 34.073730 -117.283981 1,800 357 91 -384
2018-06-20 17:07:37 GMT 34.061436 -117.283798 1,950 22 82 -512
2018-06-20 17:07:30 GMT 34.059677 -117.286285 1,950 49 87 64
2018-06-20 17:07:26 GMT 34.058361 -117.288033 1,950 49 87 64
2018-06-20 17:07:20 GMT 34.057251 -117.289650 1,925 32 87 256
2018-06-20 17:07:17 GMT 34.056175 -117.291122 1,925 32 87 256
2018-06-20 17:07:13 GMT 34.054916 -117.292336 1,925 32 87 256
2018-06-20 17:07:09 GMT 34.053955 -117.292953 1,925 21 87 -64
2018-06-20 17:07:02 GMT 34.050728 -117.294273 1,925 21 87 -64
2018-06-20 17:06:57 GMT 34.049423 -117.294861 1,900 21 86 -192
2018-06-20 17:06:44 GMT 34.044441 -117.297073 0 20 85 256
2018-06-20 17:06:37 GMT 34.041550 -117.298500 1,850 22 93 -320
2018-06-20 17:06:26 GMT 34.037201 -117.301079 1,900 27 89 256
2018-06-20 17:06:16 GMT 34.033222 -117.303658 1,850 30 95 0
2018-06-20 17:06:03 GMT 34.029266 -117.307610 1,900 61 87 -768
2018-06-20 17:05:54 GMT 34.029099 -117.311562 1,975 123 77 192
2018-06-20 17:05:43 GMT 34.031548 -117.315331 2,025 116 81 -64
2018-06-20 17:05:36 GMT 34.032394 -117.318680 2,050 87 83 -256
2018-06-20 17:05:30 GMT 34.032108 -117.321167 2,075 78 82 -448
2018-06-20 17:05:20 GMT 34.030151 -117.325005 2,100 40 85 -192
2018-06-20 17:05:08 GMT 34.026241 -117.327805 2,125 27 89 64
2018-06-20 17:04:58 GMT 34.022377 -117.329521 2,200 10 91 -192
2018-06-20 17:04:46 GMT 34.017151 -117.329163 2,225 334 100 -576
2018-06-20 17:04:36 GMT 34.012482 -117.326866 2,350 350 92 -832
2018-06-20 17:04:24 GMT 34.007584 -117.327934 2,325 21 93 448
2018-06-20 17:04:15 GMT 34.003876 -117.329613 2,350 30 91 -640
2018-06-20 17:04:04 GMT 34.001198 -117.333817 2,350 60 87 256
2018-06-20 17:03:52 GMT 33.998428 -117.338188 2,350 49 89 64
2018-06-20 17:03:41 GMT 33.994720 -117.342674 2,300 41 97 -192
2018-06-20 17:03:31 GMT 33.991653 -117.345421 2,300 40 95 -192
2018-06-20 17:03:19 GMT 33.987762 -117.349899 2,300 45 97 -64
2018-06-20 17:03:16 GMT 33.986526 -117.351364 2,300 55 92 -512
2018-06-20 17:03:09 GMT 33.984421 -117.353828 2,300 43 96 192
2018-06-20 17:02:59 GMT 33.981033 -117.358147 2,300 49 102 0
2018-06-20 17:02:47 GMT 33.977463 -117.363075 2,300 50 103 -384
2018-06-20 17:02:35 GMT 33.974476 -117.367859 2,400 54 90 -64
2018-06-20 17:02:24 GMT 33.971603 -117.372826 2,375 55 92 0
2018-06-20 17:02:20 GMT 33.970917 -117.374062 2,400 58 90 64
2018-06-20 17:02:15 GMT 33.969498 -117.376862 2,375 61 89 128
2018-06-20 17:02:09 GMT 33.968536 -117.379051 2,375 62 89 64
2018-06-20 17:02:02 GMT 33.967026 -117.382858 2,350 65 88 0
2018-06-20 17:01:58 GMT 33.966606 -117.383995 2,350 66 87 64
2018-06-20 17:01:53 GMT 33.965652 -117.386726 2,350 67 87 128
2018-06-20 17:01:48 GMT 33.965012 -117.388527 2,325 67 87 192
2018-06-20 17:01:41 GMT 33.964005 -117.391548 2,300 73 88 320
2018-06-20 17:01:35 GMT 33.963364 -117.394241 2,275 75 89 320
2018-06-20 17:01:31 GMT 33.962975 -117.396584 2,250 80 90 128
2018-06-20 17:01:23 GMT 33.962448 -117.400406 2,250 81 91 64
2018-06-20 17:01:19 GMT 33.962231 -117.402534 2,250 83 88 -192
2018-06-20 17:01:09 GMT 33.961807 -117.407806 2,200 85 92 192
2018-06-20 17:01:00 GMT 33.961533 -117.412125 2,200 85 90 -64
2018-06-20 17:00:57 GMT 33.961395 -117.413811 2,200 84 89 128
2018-06-20 17:00:47 GMT 33.960800 -117.418793 2,125 80 92 -128
2018-06-20 17:00:35 GMT 33.959976 -117.424286 2,100 77 85 256
2018-06-20 17:00:25 GMT 33.959564 -117.429611 2,000 96 86 640
2018-06-20 17:00:14 GMT 33.960182 -117.434120 1,900 105 89 832
2018-06-20 17:00:05 GMT 33.961395 -117.439194 1,775 102 93 384
2018-06-20 17:00:02 GMT 33.961533 -117.440018 1,750 101 90 320
2018-06-20 16:59:53 GMT 33.962311 -117.445358 1,625 98 88 896
2018-06-20 16:59:43 GMT 33.962883 -117.449966 1,550 96 85 384
2018-06-20 16:59:31 GMT 33.963394 -117.455009 1,450 91 85 384
2018-06-20 16:59:25 GMT 33.963024 -117.457748 1,400 54 82 384
2018-06-20 16:59:21 GMT 33.962219 -117.459595 1,375 42 81 192
2018-06-20 16:59:18 GMT 33.961578 -117.460381 1,375 42 81 192
2018-06-20 16:59:09 GMT 33.958511 -117.461899 1,300 1 80 384

Making use of Plane Finder data

You are free to use the raw flight data, aircraft information and images provided in this report for your own purposes provided the data is correctly attributed to Plane Finder. We ask that you please credit Plane Finder and link to planefinder.net in close proximity to the content.

Optionally one of the following logos (no smaller then 150x24px) can be used and must link to planefinder.net

Embedding the Plane Finder map

You are welcome to embed the Plane Finder playback map on your website to offer visitors a more interactive experience. We suggest using the following HTML code:

<iframe src="//planefinder.net/data/report/N65497-N65497-7700-squawk-2018-06-21/map" width="800" height="600" seamless="seamless"></iframe>

Where our data comes from

Plane Finder has a global network of data feeds and antenna radars that receive data broadcast directly from aircraft. The primary technologies used are ADS-B and MLAT. We also show feeds from the FAA and a FLARM glider feed.

Click here to find out more about the Plane Finder network.

How we collect our data